<?xml version="1.0" encoding="UTF-8" standalone="no" ?>
<gpx xmlns="http://www.topografix.com/GPX/1/1" xmlns:xsi="http://www.w3.org/2001/XMLSchema-instance" xsi:schemaLocation="http://www.topografix.com/GPX/1/1 http://www.topografix.com/GPX/1/1/gpx.xsd" version="1.1" creator="VisuGPX - https://www.visugpx.com">
  <metadata>
    <name>Olonne-sur-mer</name>
  </metadata>
  <trk>
    <name><![CDATA[Olonne-sur-mer_1]]></name>
    <trkseg>
      <trkpt lat="46.57246" lon="-1.79073">
        <ele>3.2</ele>
      </trkpt>
      <trkpt lat="46.57246" lon="-1.79073">
        <ele>3.2</ele>
      </trkpt>
      <trkpt lat="46.57199" lon="-1.79131">
        <ele>2.7</ele>
      </trkpt>
      <trkpt lat="46.57234" lon="-1.79177">
        <ele>1.7</ele>
      </trkpt>
      <trkpt lat="46.57258" lon="-1.79184">
        <ele>1.6</ele>
      </trkpt>
      <trkpt lat="46.57305" lon="-1.7919">
        <ele>1.2</ele>
      </trkpt>
      <trkpt lat="46.57346" lon="-1.79158">
        <ele>1.6</ele>
      </trkpt>
      <trkpt lat="46.57397" lon="-1.79116">
        <ele>2.3</ele>
      </trkpt>
      <trkpt lat="46.57442" lon="-1.79086">
        <ele>2.9</ele>
      </trkpt>
      <trkpt lat="46.57468" lon="-1.79064">
        <ele>3.9</ele>
      </trkpt>
      <trkpt lat="46.57484" lon="-1.79069">
        <ele>4</ele>
      </trkpt>
      <trkpt lat="46.57501" lon="-1.79044">
        <ele>5.1</ele>
      </trkpt>
      <trkpt lat="46.57536" lon="-1.79004">
        <ele>5.5</ele>
      </trkpt>
      <trkpt lat="46.57546" lon="-1.78978">
        <ele>6.4</ele>
      </trkpt>
      <trkpt lat="46.57562" lon="-1.78935">
        <ele>6.7</ele>
      </trkpt>
      <trkpt lat="46.57583" lon="-1.78903">
        <ele>7.1</ele>
      </trkpt>
      <trkpt lat="46.57605" lon="-1.78876">
        <ele>7.5</ele>
      </trkpt>
      <trkpt lat="46.57627" lon="-1.78829">
        <ele>8.3</ele>
      </trkpt>
      <trkpt lat="46.5764" lon="-1.78815">
        <ele>8.3</ele>
      </trkpt>
      <trkpt lat="46.57656" lon="-1.78811">
        <ele>8.3</ele>
      </trkpt>
      <trkpt lat="46.57656" lon="-1.78813">
        <ele>8.2</ele>
      </trkpt>
      <trkpt lat="46.57716" lon="-1.78786">
        <ele>8.5</ele>
      </trkpt>
      <trkpt lat="46.57767" lon="-1.78749">
        <ele>9.6</ele>
      </trkpt>
      <trkpt lat="46.57827" lon="-1.78861">
        <ele>9.6</ele>
      </trkpt>
      <trkpt lat="46.57866" lon="-1.78792">
        <ele>11.4</ele>
      </trkpt>
      <trkpt lat="46.57887" lon="-1.78749">
        <ele>12.2</ele>
      </trkpt>
      <trkpt lat="46.57909" lon="-1.78728">
        <ele>12.4</ele>
      </trkpt>
      <trkpt lat="46.58032" lon="-1.78636">
        <ele>17.7</ele>
      </trkpt>
      <trkpt lat="46.5805" lon="-1.78634">
        <ele>18.1</ele>
      </trkpt>
      <trkpt lat="46.58103" lon="-1.78854">
        <ele>16.3</ele>
      </trkpt>
      <trkpt lat="46.5811" lon="-1.78908">
        <ele>16</ele>
      </trkpt>
      <trkpt lat="46.58121" lon="-1.79048">
        <ele>15.4</ele>
      </trkpt>
      <trkpt lat="46.5813" lon="-1.79069">
        <ele>15.2</ele>
      </trkpt>
      <trkpt lat="46.58145" lon="-1.79114">
        <ele>14.2</ele>
      </trkpt>
      <trkpt lat="46.58152" lon="-1.79128">
        <ele>13.990625</ele>
        <time>2015-08-12T08:49:43Z</time>
      </trkpt>
      <trkpt lat="46.58169" lon="-1.79143">
        <ele>14.560625</ele>
        <time>2015-08-12T08:49:49Z</time>
      </trkpt>
      <trkpt lat="46.58186" lon="-1.79165">
        <ele>14.31</ele>
        <time>2015-08-12T08:49:55Z</time>
      </trkpt>
      <trkpt lat="46.58196" lon="-1.79172">
        <ele>14.2175</ele>
        <time>2015-08-12T08:49:58Z</time>
      </trkpt>
      <trkpt lat="46.58209" lon="-1.79168">
        <ele>14.295625</ele>
        <time>2015-08-12T08:50:01Z</time>
      </trkpt>
      <trkpt lat="46.58288" lon="-1.79064">
        <ele>15.970625</ele>
        <time>2015-08-12T08:50:27Z</time>
      </trkpt>
      <trkpt lat="46.58299" lon="-1.79054">
        <ele>16.13625</ele>
        <time>2015-08-12T08:50:30Z</time>
      </trkpt>
      <trkpt lat="46.58348" lon="-1.79019">
        <ele>16.960344</ele>
        <time>2015-08-12T08:50:43Z</time>
      </trkpt>
      <trkpt lat="46.58389" lon="-1.78998">
        <ele>17.844999</ele>
        <time>2015-08-12T08:50:53Z</time>
      </trkpt>
      <trkpt lat="46.58412" lon="-1.78998">
        <ele>18.368126</ele>
        <time>2015-08-12T08:50:58Z</time>
      </trkpt>
      <trkpt lat="46.58433" lon="-1.79005">
        <ele>18.769375</ele>
        <time>2015-08-12T08:51:03Z</time>
      </trkpt>
      <trkpt lat="46.58476" lon="-1.79025">
        <ele>19.632284</ele>
        <time>2015-08-12T08:51:15Z</time>
      </trkpt>
      <trkpt lat="46.58495" lon="-1.79037">
        <ele>20.129999</ele>
        <time>2015-08-12T08:51:25Z</time>
      </trkpt>
      <trkpt lat="46.58551" lon="-1.79033">
        <ele>21.271126</ele>
        <time>2015-08-12T08:51:42Z</time>
      </trkpt>
      <trkpt lat="46.58664" lon="-1.79012">
        <ele>22.545437</ele>
        <time>2015-08-12T08:52:08Z</time>
      </trkpt>
      <trkpt lat="46.58723" lon="-1.78994">
        <ele>22.322363</ele>
        <time>2015-08-12T08:52:20Z</time>
      </trkpt>
      <trkpt lat="46.58755" lon="-1.78979">
        <ele>21.812521</ele>
        <time>2015-08-12T08:52:26Z</time>
      </trkpt>
      <trkpt lat="46.58773" lon="-1.78964">
        <ele>21.617994</ele>
        <time>2015-08-12T08:52:30Z</time>
      </trkpt>
      <trkpt lat="46.5878" lon="-1.78955">
        <ele>21.528406</ele>
        <time>2015-08-12T08:52:32Z</time>
      </trkpt>
      <trkpt lat="46.58825" lon="-1.78914">
        <ele>21.112499</ele>
        <time>2015-08-12T08:52:42Z</time>
      </trkpt>
      <trkpt lat="46.58833" lon="-1.78901">
        <ele>21.049999</ele>
        <time>2015-08-12T08:52:45Z</time>
      </trkpt>
      <trkpt lat="46.58842" lon="-1.78894">
        <ele>20.799999</ele>
        <time>2015-08-12T08:52:47Z</time>
      </trkpt>
      <trkpt lat="46.58892" lon="-1.78862">
        <ele>18.990419</ele>
        <time>2015-08-12T08:52:55Z</time>
      </trkpt>
      <trkpt lat="46.58911" lon="-1.78846">
        <ele>18.674067</ele>
        <time>2015-08-12T08:52:59Z</time>
      </trkpt>
      <trkpt lat="46.58939" lon="-1.78829">
        <ele>18.302469</ele>
        <time>2015-08-12T08:53:05Z</time>
      </trkpt>
      <trkpt lat="46.59017" lon="-1.78766">
        <ele>17.231173</ele>
        <time>2015-08-12T08:53:22Z</time>
      </trkpt>
      <trkpt lat="46.59123" lon="-1.78687">
        <ele>12.197812</ele>
        <time>2015-08-12T08:53:40Z</time>
      </trkpt>
      <trkpt lat="46.59173" lon="-1.78654">
        <ele>9.375</ele>
        <time>2015-08-12T08:53:46Z</time>
      </trkpt>
      <trkpt lat="46.59222" lon="-1.78615">
        <ele>7.15</ele>
        <time>2015-08-12T08:53:53Z</time>
      </trkpt>
      <trkpt lat="46.59303" lon="-1.78535">
        <ele>3.51975</ele>
        <time>2015-08-12T08:54:09Z</time>
      </trkpt>
      <trkpt lat="46.59316" lon="-1.78509">
        <ele>3.042494</ele>
        <time>2015-08-12T08:54:15Z</time>
      </trkpt>
      <trkpt lat="46.59332" lon="-1.78492">
        <ele>3</ele>
        <time>2015-08-12T08:54:22Z</time>
      </trkpt>
      <trkpt lat="46.59344" lon="-1.78455">
        <ele>3</ele>
        <time>2015-08-12T08:56:16Z</time>
      </trkpt>
      <trkpt lat="46.59351" lon="-1.7844">
        <ele>3</ele>
        <time>2015-08-12T08:56:20Z</time>
      </trkpt>
      <trkpt lat="46.59359" lon="-1.78426">
        <ele>3</ele>
        <time>2015-08-12T08:56:23Z</time>
      </trkpt>
      <trkpt lat="46.59423" lon="-1.78342">
        <ele>4.028987</ele>
        <time>2015-08-12T08:56:44Z</time>
      </trkpt>
      <trkpt lat="46.59434" lon="-1.78316">
        <ele>6.3925</ele>
        <time>2015-08-12T08:56:51Z</time>
      </trkpt>
      <trkpt lat="46.59447" lon="-1.78294">
        <ele>9.937437</ele>
        <time>2015-08-12T08:56:59Z</time>
      </trkpt>
      <trkpt lat="46.59464" lon="-1.78281">
        <ele>13.54675</ele>
        <time>2015-08-12T08:57:06Z</time>
      </trkpt>
      <trkpt lat="46.59475" lon="-1.78277">
        <ele>15.831512</ele>
        <time>2015-08-12T08:57:11Z</time>
      </trkpt>
      <trkpt lat="46.59515" lon="-1.78272">
        <ele>22.725</ele>
        <time>2015-08-12T08:58:14Z</time>
      </trkpt>
      <trkpt lat="46.59553" lon="-1.78279">
        <ele>27</ele>
        <time>2015-08-12T08:59:02Z</time>
      </trkpt>
      <trkpt lat="46.59584" lon="-1.78271">
        <ele>28.35</ele>
        <time>2015-08-12T08:59:18Z</time>
      </trkpt>
      <trkpt lat="46.59593" lon="-1.78265">
        <ele>28.76</ele>
        <time>2015-08-12T08:59:22Z</time>
      </trkpt>
      <trkpt lat="46.59632" lon="-1.78255">
        <ele>30.459999</ele>
        <time>2015-08-12T08:59:39Z</time>
      </trkpt>
      <trkpt lat="46.5965" lon="-1.78245">
        <ele>31.135</ele>
        <time>2015-08-12T08:59:50Z</time>
      </trkpt>
      <trkpt lat="46.5966" lon="-1.78236">
        <ele>31.34</ele>
        <time>2015-08-12T08:59:56Z</time>
      </trkpt>
      <trkpt lat="46.59665" lon="-1.78221">
        <ele>31.445</ele>
        <time>2015-08-12T09:00:00Z</time>
      </trkpt>
      <trkpt lat="46.59672" lon="-1.78211">
        <ele>31.584999</ele>
        <time>2015-08-12T09:00:03Z</time>
      </trkpt>
      <trkpt lat="46.5968" lon="-1.78204">
        <ele>31.76</ele>
        <time>2015-08-12T09:00:06Z</time>
      </trkpt>
      <trkpt lat="46.59774" lon="-1.78162">
        <ele>32.399353</ele>
        <time>2015-08-12T09:00:33Z</time>
      </trkpt>
      <trkpt lat="46.59851" lon="-1.7812">
        <ele>33.371906</ele>
        <time>2015-08-12T09:00:59Z</time>
      </trkpt>
      <trkpt lat="46.5986" lon="-1.78126">
        <ele>33.646389</ele>
        <time>2015-08-12T09:01:05Z</time>
      </trkpt>
      <trkpt lat="46.59869" lon="-1.78157">
        <ele>34.211876</ele>
        <time>2015-08-12T09:01:12Z</time>
      </trkpt>
      <trkpt lat="46.59884" lon="-1.78203">
        <ele>34.990307</ele>
        <time>2015-08-12T09:01:20Z</time>
      </trkpt>
      <trkpt lat="46.59911" lon="-1.78266">
        <ele>35.863625</ele>
        <time>2015-08-12T09:01:32Z</time>
      </trkpt>
      <trkpt lat="46.59968" lon="-1.7842">
        <ele>35</ele>
        <time>2015-08-12T09:02:02Z</time>
      </trkpt>
      <trkpt lat="46.59974" lon="-1.78448">
        <ele>35</ele>
        <time>2015-08-12T09:02:10Z</time>
      </trkpt>
      <trkpt lat="46.59962" lon="-1.78492">
        <ele>35</ele>
        <time>2015-08-12T09:02:23Z</time>
      </trkpt>
      <trkpt lat="46.59972" lon="-1.7849">
        <ele>35</ele>
        <time>2015-08-12T09:02:32Z</time>
      </trkpt>
      <trkpt lat="46.59959" lon="-1.78512">
        <ele>35</ele>
        <time>2015-08-12T09:05:44Z</time>
      </trkpt>
      <trkpt lat="46.59988" lon="-1.78529">
        <ele>35</ele>
        <time>2015-08-12T09:05:57Z</time>
      </trkpt>
      <trkpt lat="46.60065" lon="-1.78555">
        <ele>35.59</ele>
        <time>2015-08-12T09:06:16Z</time>
      </trkpt>
      <trkpt lat="46.60161" lon="-1.7859">
        <ele>33.396252</ele>
        <time>2015-08-12T09:06:36Z</time>
      </trkpt>
      <trkpt lat="46.60173" lon="-1.78596">
        <ele>32.98</ele>
        <time>2015-08-12T09:06:39Z</time>
      </trkpt>
      <trkpt lat="46.60202" lon="-1.78603">
        <ele>31.68</ele>
        <time>2015-08-12T09:06:55Z</time>
      </trkpt>
      <trkpt lat="46.60214" lon="-1.7861">
        <ele>31.110001</ele>
        <time>2015-08-12T09:06:58Z</time>
      </trkpt>
      <trkpt lat="46.60233" lon="-1.78616">
        <ele>30.26</ele>
        <time>2015-08-12T09:07:02Z</time>
      </trkpt>
      <trkpt lat="46.60265" lon="-1.78621">
        <ele>28.779032</ele>
        <time>2015-08-12T09:07:08Z</time>
      </trkpt>
      <trkpt lat="46.60302" lon="-1.78623">
        <ele>26.350613</ele>
        <time>2015-08-12T09:07:14Z</time>
      </trkpt>
      <trkpt lat="46.60314" lon="-1.78626">
        <ele>25.697735</ele>
        <time>2015-08-12T09:07:16Z</time>
      </trkpt>
      <trkpt lat="46.60355" lon="-1.7866">
        <ele>24.341999</ele>
        <time>2015-08-12T09:07:24Z</time>
      </trkpt>
      <trkpt lat="46.60364" lon="-1.78671">
        <ele>24.21105</ele>
        <time>2015-08-12T09:07:26Z</time>
      </trkpt>
      <trkpt lat="46.60436" lon="-1.78724">
        <ele>20.745962</ele>
        <time>2015-08-12T09:07:38Z</time>
      </trkpt>
      <trkpt lat="46.60454" lon="-1.78747">
        <ele>19.988125</ele>
        <time>2015-08-12T09:07:42Z</time>
      </trkpt>
      <trkpt lat="46.60472" lon="-1.7876">
        <ele>19.379999</ele>
        <time>2015-08-12T09:07:46Z</time>
      </trkpt>
      <trkpt lat="46.60481" lon="-1.78771">
        <ele>19.025</ele>
        <time>2015-08-12T09:07:49Z</time>
      </trkpt>
      <trkpt lat="46.60488" lon="-1.78785">
        <ele>19.165001</ele>
        <time>2015-08-12T09:07:58Z</time>
      </trkpt>
      <trkpt lat="46.60555" lon="-1.78816">
        <ele>21.732368</ele>
        <time>2015-08-12T09:08:22Z</time>
      </trkpt>
      <trkpt lat="46.60599" lon="-1.7885">
        <ele>24.985624</ele>
        <time>2015-08-12T09:08:38Z</time>
      </trkpt>
      <trkpt lat="46.60648" lon="-1.78909">
        <ele>25.901251</ele>
        <time>2015-08-12T09:09:00Z</time>
      </trkpt>
      <trkpt lat="46.60693" lon="-1.78955">
        <ele>26.05625</ele>
        <time>2015-08-12T09:09:19Z</time>
      </trkpt>
      <trkpt lat="46.60739" lon="-1.78982">
        <ele>27.058125</ele>
        <time>2015-08-12T09:09:36Z</time>
      </trkpt>
      <trkpt lat="46.60811" lon="-1.78998">
        <ele>28.5</ele>
        <time>2015-08-12T09:10:00Z</time>
      </trkpt>
      <trkpt lat="46.60843" lon="-1.78999">
        <ele>29.42</ele>
        <time>2015-08-12T09:10:10Z</time>
      </trkpt>
      <trkpt lat="46.60862" lon="-1.79003">
        <ele>30.299999</ele>
        <time>2015-08-12T09:10:18Z</time>
      </trkpt>
      <trkpt lat="46.60891" lon="-1.79001">
        <ele>31.285074</ele>
        <time>2015-08-12T09:10:40Z</time>
      </trkpt>
      <trkpt lat="46.60921" lon="-1.79007">
        <ele>32.028374</ele>
        <time>2015-08-12T09:10:50Z</time>
      </trkpt>
      <trkpt lat="46.6096" lon="-1.79023">
        <ele>33.716408</ele>
        <time>2015-08-12T09:11:04Z</time>
      </trkpt>
      <trkpt lat="46.60979" lon="-1.79035">
        <ele>34.411743</ele>
        <time>2015-08-12T09:11:11Z</time>
      </trkpt>
      <trkpt lat="46.60989" lon="-1.79039">
        <ele>34.722698</ele>
        <time>2015-08-12T09:11:14Z</time>
      </trkpt>
      <trkpt lat="46.61008" lon="-1.79053">
        <ele>35.204369</ele>
        <time>2015-08-12T09:11:21Z</time>
      </trkpt>
      <trkpt lat="46.6107" lon="-1.79077">
        <ele>37.647499</ele>
        <time>2015-08-12T09:11:42Z</time>
      </trkpt>
      <trkpt lat="46.61184" lon="-1.79145">
        <ele>42.009075</ele>
        <time>2015-08-12T09:12:26Z</time>
      </trkpt>
      <trkpt lat="46.6124" lon="-1.79184">
        <ele>43.752499</ele>
        <time>2015-08-12T09:12:49Z</time>
      </trkpt>
      <trkpt lat="46.61292" lon="-1.792">
        <ele>44.393124</ele>
        <time>2015-08-12T09:13:04Z</time>
      </trkpt>
      <trkpt lat="46.61374" lon="-1.79247">
        <ele>43.608795</ele>
        <time>2015-08-12T09:13:33Z</time>
      </trkpt>
      <trkpt lat="46.61378" lon="-1.7926">
        <ele>43.400494</ele>
        <time>2015-08-12T09:13:38Z</time>
      </trkpt>
      <trkpt lat="46.61374" lon="-1.79345">
        <ele>42.79665</ele>
        <time>2015-08-12T09:13:54Z</time>
      </trkpt>
      <trkpt lat="46.61375" lon="-1.79417">
        <ele>42.634998</ele>
        <time>2015-08-12T09:14:05Z</time>
      </trkpt>
      <trkpt lat="46.61374" lon="-1.79475">
        <ele>42.615002</ele>
        <time>2015-08-12T09:14:13Z</time>
      </trkpt>
      <trkpt lat="46.61385" lon="-1.7954">
        <ele>42.097198</ele>
        <time>2015-08-12T09:14:23Z</time>
      </trkpt>
      <trkpt lat="46.61387" lon="-1.79566">
        <ele>42</ele>
        <time>2015-08-12T09:14:27Z</time>
      </trkpt>
      <trkpt lat="46.6139" lon="-1.79669">
        <ele>41.410374</ele>
        <time>2015-08-12T09:14:41Z</time>
      </trkpt>
      <trkpt lat="46.61382" lon="-1.79792">
        <ele>41.078861</ele>
        <time>2015-08-12T09:14:59Z</time>
      </trkpt>
      <trkpt lat="46.61384" lon="-1.79822">
        <ele>40.989552</ele>
        <time>2015-08-12T09:15:06Z</time>
      </trkpt>
      <trkpt lat="46.61389" lon="-1.79882">
        <ele>40.081505</ele>
        <time>2015-08-12T09:15:15Z</time>
      </trkpt>
      <trkpt lat="46.61392" lon="-1.79944">
        <ele>40</ele>
        <time>2015-08-12T09:15:24Z</time>
      </trkpt>
      <trkpt lat="46.61391" lon="-1.79962">
        <ele>40.146252</ele>
        <time>2015-08-12T09:15:27Z</time>
      </trkpt>
      <trkpt lat="46.61373" lon="-1.80067">
        <ele>41.123299</ele>
        <time>2015-08-12T09:15:44Z</time>
      </trkpt>
      <trkpt lat="46.61355" lon="-1.80131">
        <ele>41.883984</ele>
        <time>2015-08-12T09:15:56Z</time>
      </trkpt>
      <trkpt lat="46.6135" lon="-1.80142">
        <ele>41.976112</ele>
        <time>2015-08-12T09:16:00Z</time>
      </trkpt>
      <trkpt lat="46.61327" lon="-1.80215">
        <ele>43</ele>
        <time>2015-08-12T09:16:17Z</time>
      </trkpt>
      <trkpt lat="46.6131" lon="-1.8028">
        <ele>43.035862</ele>
        <time>2015-08-12T09:16:29Z</time>
      </trkpt>
      <trkpt lat="46.61304" lon="-1.8031">
        <ele>43.278572</ele>
        <time>2015-08-12T09:16:35Z</time>
      </trkpt>
      <trkpt lat="46.61301" lon="-1.80342">
        <ele>43.529999</ele>
        <time>2015-08-12T09:16:40Z</time>
      </trkpt>
      <trkpt lat="46.61301" lon="-1.80406">
        <ele>43.531876</ele>
        <time>2015-08-12T09:16:50Z</time>
      </trkpt>
      <trkpt lat="46.61328" lon="-1.80567">
        <ele>44.642361</ele>
        <time>2015-08-12T09:17:15Z</time>
      </trkpt>
      <trkpt lat="46.61353" lon="-1.8064">
        <ele>44.699375</ele>
        <time>2015-08-12T09:17:28Z</time>
      </trkpt>
      <trkpt lat="46.61366" lon="-1.80688">
        <ele>44.810001</ele>
        <time>2015-08-12T09:17:36Z</time>
      </trkpt>
      <trkpt lat="46.61381" lon="-1.80773">
        <ele>44.745892</ele>
        <time>2015-08-12T09:17:49Z</time>
      </trkpt>
      <trkpt lat="46.61402" lon="-1.80931">
        <ele>44.82</ele>
        <time>2015-08-12T09:18:15Z</time>
      </trkpt>
      <trkpt lat="46.61405" lon="-1.80945">
        <ele>44.735001</ele>
        <time>2015-08-12T09:18:20Z</time>
      </trkpt>
      <trkpt lat="46.61413" lon="-1.80933">
        <ele>44.575001</ele>
        <time>2015-08-12T09:18:26Z</time>
      </trkpt>
      <trkpt lat="46.61427" lon="-1.80893">
        <ele>44.294998</ele>
        <time>2015-08-12T09:18:37Z</time>
      </trkpt>
      <trkpt lat="46.61446" lon="-1.80858">
        <ele>43.613163</ele>
        <time>2015-08-12T09:18:46Z</time>
      </trkpt>
      <trkpt lat="46.61441" lon="-1.80871">
        <ele>43.965149</ele>
        <time>2015-08-12T09:19:01Z</time>
      </trkpt>
      <trkpt lat="46.61429" lon="-1.80894">
        <ele>44.25</ele>
        <time>2015-08-12T09:19:07Z</time>
      </trkpt>
      <trkpt lat="46.61402" lon="-1.80966">
        <ele>44.785</ele>
        <time>2015-08-12T09:21:54Z</time>
      </trkpt>
      <trkpt lat="46.61398" lon="-1.80981">
        <ele>44.860001</ele>
        <time>2015-08-12T09:21:57Z</time>
      </trkpt>
      <trkpt lat="46.6139" lon="-1.81032">
        <ele>45.498749</ele>
        <time>2015-08-12T09:22:06Z</time>
      </trkpt>
      <trkpt lat="46.61384" lon="-1.81098">
        <ele>46.535</ele>
        <time>2015-08-12T09:22:18Z</time>
      </trkpt>
      <trkpt lat="46.61372" lon="-1.81193">
        <ele>46.003124</ele>
        <time>2015-08-12T09:22:33Z</time>
      </trkpt>
      <trkpt lat="46.61363" lon="-1.81241">
        <ele>45.261875</ele>
        <time>2015-08-12T09:22:40Z</time>
      </trkpt>
      <trkpt lat="46.61356" lon="-1.81271">
        <ele>45</ele>
        <time>2015-08-12T09:22:44Z</time>
      </trkpt>
      <trkpt lat="46.61345" lon="-1.81302">
        <ele>45</ele>
        <time>2015-08-12T09:22:48Z</time>
      </trkpt>
      <trkpt lat="46.61316" lon="-1.81366">
        <ele>44.290001</ele>
        <time>2015-08-12T09:22:56Z</time>
      </trkpt>
      <trkpt lat="46.61295" lon="-1.81408">
        <ele>44</ele>
        <time>2015-08-12T09:23:02Z</time>
      </trkpt>
      <trkpt lat="46.61276" lon="-1.81449">
        <ele>43.982498</ele>
        <time>2015-08-12T09:23:08Z</time>
      </trkpt>
      <trkpt lat="46.61267" lon="-1.81475">
        <ele>43.564999</ele>
        <time>2015-08-12T09:23:12Z</time>
      </trkpt>
      <trkpt lat="46.61261" lon="-1.81503">
        <ele>43.131248</ele>
        <time>2015-08-12T09:23:16Z</time>
      </trkpt>
      <trkpt lat="46.61248" lon="-1.816">
        <ele>43</ele>
        <time>2015-08-12T09:23:28Z</time>
      </trkpt>
      <trkpt lat="46.61245" lon="-1.8165">
        <ele>42.868126</ele>
        <time>2015-08-12T09:23:34Z</time>
      </trkpt>
      <trkpt lat="46.61248" lon="-1.81777">
        <ele>41.480625</ele>
        <time>2015-08-12T09:23:50Z</time>
      </trkpt>
      <trkpt lat="46.61245" lon="-1.8183">
        <ele>40.6875</ele>
        <time>2015-08-12T09:23:56Z</time>
      </trkpt>
      <trkpt lat="46.6123" lon="-1.81945">
        <ele>36.295433</ele>
        <time>2015-08-12T09:24:08Z</time>
      </trkpt>
      <trkpt lat="46.61232" lon="-1.81965">
        <ele>35.587204</ele>
        <time>2015-08-12T09:24:10Z</time>
      </trkpt>
      <trkpt lat="46.61241" lon="-1.8198">
        <ele>35.643513</ele>
        <time>2015-08-12T09:24:12Z</time>
      </trkpt>
      <trkpt lat="46.61252" lon="-1.81991">
        <ele>35.843685</ele>
        <time>2015-08-12T09:24:14Z</time>
      </trkpt>
      <trkpt lat="46.6126" lon="-1.82003">
        <ele>35.792477</ele>
        <time>2015-08-12T09:24:16Z</time>
      </trkpt>
      <trkpt lat="46.61259" lon="-1.8202">
        <ele>35.302258</ele>
        <time>2015-08-12T09:24:18Z</time>
      </trkpt>
      <trkpt lat="46.61246" lon="-1.82076">
        <ele>34.405102</ele>
        <time>2015-08-12T09:24:24Z</time>
      </trkpt>
      <trkpt lat="46.61244" lon="-1.82095">
        <ele>34.251175</ele>
        <time>2015-08-12T09:24:26Z</time>
      </trkpt>
      <trkpt lat="46.61245" lon="-1.82113">
        <ele>34.396713</ele>
        <time>2015-08-12T09:24:28Z</time>
      </trkpt>
      <trkpt lat="46.61254" lon="-1.82148">
        <ele>34.843437</ele>
        <time>2015-08-12T09:24:32Z</time>
      </trkpt>
      <trkpt lat="46.6126" lon="-1.82165">
        <ele>35.020199</ele>
        <time>2015-08-12T09:24:34Z</time>
      </trkpt>
      <trkpt lat="46.61303" lon="-1.82314">
        <ele>36</ele>
        <time>2015-08-12T09:24:52Z</time>
      </trkpt>
      <trkpt lat="46.6131" lon="-1.82346">
        <ele>36</ele>
        <time>2015-08-12T09:24:56Z</time>
      </trkpt>
      <trkpt lat="46.61315" lon="-1.82378">
        <ele>35.919334</ele>
        <time>2015-08-12T09:25:00Z</time>
      </trkpt>
      <trkpt lat="46.61324" lon="-1.82508">
        <ele>35.096249</ele>
        <time>2015-08-12T09:25:14Z</time>
      </trkpt>
      <trkpt lat="46.61323" lon="-1.82643">
        <ele>34.045364</ele>
        <time>2015-08-12T09:25:31Z</time>
      </trkpt>
      <trkpt lat="46.61329" lon="-1.82653">
        <ele>34.015175</ele>
        <time>2015-08-12T09:25:56Z</time>
      </trkpt>
      <trkpt lat="46.61341" lon="-1.82651">
        <ele>33.549999</ele>
        <time>2015-08-12T09:25:59Z</time>
      </trkpt>
      <trkpt lat="46.61348" lon="-1.82665">
        <ele>33.23</ele>
        <time>2015-08-12T09:26:02Z</time>
      </trkpt>
      <trkpt lat="46.61332" lon="-1.82753">
        <ele>33.779999</ele>
        <time>2015-08-12T09:26:15Z</time>
      </trkpt>
      <trkpt lat="46.61327" lon="-1.82823">
        <ele>33.91</ele>
        <time>2015-08-12T09:26:25Z</time>
      </trkpt>
      <trkpt lat="46.61322" lon="-1.82852">
        <ele>34.040001</ele>
        <time>2015-08-12T09:26:29Z</time>
      </trkpt>
      <trkpt lat="46.61313" lon="-1.82883">
        <ele>34.215</ele>
        <time>2015-08-12T09:26:33Z</time>
      </trkpt>
      <trkpt lat="46.613" lon="-1.82912">
        <ele>34.274517</ele>
        <time>2015-08-12T09:26:37Z</time>
      </trkpt>
      <trkpt lat="46.61277" lon="-1.82949">
        <ele>34.911324</ele>
        <time>2015-08-12T09:26:43Z</time>
      </trkpt>
      <trkpt lat="46.6126" lon="-1.82973">
        <ele>34.759876</ele>
        <time>2015-08-12T09:26:47Z</time>
      </trkpt>
      <trkpt lat="46.61198" lon="-1.83047">
        <ele>34.445</ele>
        <time>2015-08-12T09:27:01Z</time>
      </trkpt>
      <trkpt lat="46.61151" lon="-1.83095">
        <ele>32.883652</ele>
        <time>2015-08-12T09:27:09Z</time>
      </trkpt>
      <trkpt lat="46.61122" lon="-1.83141">
        <ele>31.849976</ele>
        <time>2015-08-12T09:27:15Z</time>
      </trkpt>
      <trkpt lat="46.61107" lon="-1.83175">
        <ele>31.0973</ele>
        <time>2015-08-12T09:27:19Z</time>
      </trkpt>
      <trkpt lat="46.6105" lon="-1.83264">
        <ele>29.182825</ele>
        <time>2015-08-12T09:27:31Z</time>
      </trkpt>
      <trkpt lat="46.61042" lon="-1.8328">
        <ele>28.759687</ele>
        <time>2015-08-12T09:27:33Z</time>
      </trkpt>
      <trkpt lat="46.61036" lon="-1.83297">
        <ele>28.429375</ele>
        <time>2015-08-12T09:27:35Z</time>
      </trkpt>
      <trkpt lat="46.61016" lon="-1.83368">
        <ele>26.637501</ele>
        <time>2015-08-12T09:27:43Z</time>
      </trkpt>
      <trkpt lat="46.61004" lon="-1.83402">
        <ele>25.920124</ele>
        <time>2015-08-12T09:27:47Z</time>
      </trkpt>
      <trkpt lat="46.60984" lon="-1.83449">
        <ele>26</ele>
        <time>2015-08-12T09:27:53Z</time>
      </trkpt>
      <trkpt lat="46.60975" lon="-1.83463">
        <ele>25.81625</ele>
        <time>2015-08-12T09:27:55Z</time>
      </trkpt>
      <trkpt lat="46.60965" lon="-1.83474">
        <ele>25.62875</ele>
        <time>2015-08-12T09:27:57Z</time>
      </trkpt>
      <trkpt lat="46.60919" lon="-1.83513">
        <ele>24.565001</ele>
        <time>2015-08-12T09:28:05Z</time>
      </trkpt>
      <trkpt lat="46.60897" lon="-1.83537">
        <ele>24.094999</ele>
        <time>2015-08-12T09:28:09Z</time>
      </trkpt>
      <trkpt lat="46.60864" lon="-1.83592">
        <ele>23.28175</ele>
        <time>2015-08-12T09:28:17Z</time>
      </trkpt>
      <trkpt lat="46.60858" lon="-1.83607">
        <ele>23.129938</ele>
        <time>2015-08-12T09:28:19Z</time>
      </trkpt>
      <trkpt lat="46.60849" lon="-1.83619">
        <ele>23.024637</ele>
        <time>2015-08-12T09:28:21Z</time>
      </trkpt>
      <trkpt lat="46.60815" lon="-1.83643">
        <ele>22.307518</ele>
        <time>2015-08-12T09:28:27Z</time>
      </trkpt>
      <trkpt lat="46.60742" lon="-1.83689">
        <ele>20.77</ele>
        <time>2015-08-12T09:28:39Z</time>
      </trkpt>
      <trkpt lat="46.60705" lon="-1.83718">
        <ele>19.93</ele>
        <time>2015-08-12T09:28:45Z</time>
      </trkpt>
      <trkpt lat="46.60665" lon="-1.83745">
        <ele>18.190001</ele>
        <time>2015-08-12T09:28:51Z</time>
      </trkpt>
      <trkpt lat="46.60657" lon="-1.83753">
        <ele>17.775845</ele>
        <time>2015-08-12T09:28:55Z</time>
      </trkpt>
      <trkpt lat="46.60658" lon="-1.83767">
        <ele>17.902678</ele>
        <time>2015-08-12T09:29:07Z</time>
      </trkpt>
      <trkpt lat="46.60818" lon="-1.84376">
        <ele>8.7</ele>
      </trkpt>
      <trkpt lat="46.60836" lon="-1.84384">
        <ele>10.3</ele>
      </trkpt>
      <trkpt lat="46.60862" lon="-1.84399">
        <ele>10.4</ele>
      </trkpt>
      <trkpt lat="46.60885" lon="-1.84411">
        <ele>10.6</ele>
      </trkpt>
      <trkpt lat="46.60956" lon="-1.84434">
        <ele>10</ele>
      </trkpt>
      <trkpt lat="46.61007" lon="-1.84455">
        <ele>7.2</ele>
      </trkpt>
      <trkpt lat="46.61024" lon="-1.84483">
        <ele>8.1</ele>
      </trkpt>
      <trkpt lat="46.61046" lon="-1.84495">
        <ele>7.2</ele>
      </trkpt>
      <trkpt lat="46.61069" lon="-1.84519">
        <ele>10.3</ele>
      </trkpt>
      <trkpt lat="46.6109" lon="-1.84537">
        <ele>10.2</ele>
      </trkpt>
      <trkpt lat="46.6111" lon="-1.84543">
        <ele>10.6</ele>
      </trkpt>
      <trkpt lat="46.61131" lon="-1.84531">
        <ele>10.1</ele>
      </trkpt>
      <trkpt lat="46.61141" lon="-1.84483">
        <ele>6.1</ele>
      </trkpt>
      <trkpt lat="46.61158" lon="-1.84449">
        <ele>5.5</ele>
      </trkpt>
      <trkpt lat="46.61182" lon="-1.84433">
        <ele>6.8</ele>
      </trkpt>
      <trkpt lat="46.61213" lon="-1.8444">
        <ele>7.8</ele>
      </trkpt>
      <trkpt lat="46.61239" lon="-1.84443">
        <ele>8.2</ele>
      </trkpt>
      <trkpt lat="46.61291" lon="-1.84419">
        <ele>11.2</ele>
      </trkpt>
      <trkpt lat="46.61338" lon="-1.84405">
        <ele>12.5</ele>
      </trkpt>
      <trkpt lat="46.61378" lon="-1.84395">
        <ele>12</ele>
      </trkpt>
      <trkpt lat="46.61425" lon="-1.84383">
        <ele>11.8</ele>
      </trkpt>
      <trkpt lat="46.6147" lon="-1.84386">
        <ele>11.6</ele>
      </trkpt>
      <trkpt lat="46.61495" lon="-1.84399">
        <ele>11.7</ele>
      </trkpt>
      <trkpt lat="46.61479" lon="-1.84499">
        <ele>14</ele>
      </trkpt>
      <trkpt lat="46.61466" lon="-1.84582">
        <ele>14.9</ele>
      </trkpt>
      <trkpt lat="46.61452" lon="-1.84657">
        <ele>16.1</ele>
      </trkpt>
      <trkpt lat="46.6145" lon="-1.84698">
        <ele>17</ele>
      </trkpt>
      <trkpt lat="46.61447" lon="-1.84767">
        <ele>18.3</ele>
      </trkpt>
      <trkpt lat="46.61444" lon="-1.84812">
        <ele>18.5</ele>
      </trkpt>
      <trkpt lat="46.61462" lon="-1.84815">
        <ele>18.4</ele>
      </trkpt>
      <trkpt lat="46.61495" lon="-1.84811">
        <ele>18.4</ele>
      </trkpt>
      <trkpt lat="46.6153" lon="-1.84807">
        <ele>17.5</ele>
      </trkpt>
      <trkpt lat="46.61554" lon="-1.84802">
        <ele>17.3</ele>
      </trkpt>
      <trkpt lat="46.61647" lon="-1.84791">
        <ele>17</ele>
      </trkpt>
      <trkpt lat="46.61712" lon="-1.84812">
        <ele>17.9</ele>
      </trkpt>
      <trkpt lat="46.61771" lon="-1.84844">
        <ele>18.1</ele>
      </trkpt>
      <trkpt lat="46.61759" lon="-1.8498">
        <ele>16.1</ele>
      </trkpt>
      <trkpt lat="46.61753" lon="-1.85089">
        <ele>12.6</ele>
      </trkpt>
      <trkpt lat="46.61832" lon="-1.85104">
        <ele>11.7</ele>
      </trkpt>
      <trkpt lat="46.61898" lon="-1.85146">
        <ele>11.3</ele>
      </trkpt>
      <trkpt lat="46.61925" lon="-1.85197">
        <ele>9.8</ele>
      </trkpt>
      <trkpt lat="46.61944" lon="-1.85256">
        <ele>8.3</ele>
      </trkpt>
      <trkpt lat="46.61982" lon="-1.85364">
        <ele>7.7</ele>
      </trkpt>
      <trkpt lat="46.62007" lon="-1.85461">
        <ele>9</ele>
      </trkpt>
      <trkpt lat="46.62046" lon="-1.85523">
        <ele>8.9</ele>
      </trkpt>
      <trkpt lat="46.62102" lon="-1.85574">
        <ele>9.5</ele>
      </trkpt>
      <trkpt lat="46.62212" lon="-1.8565">
        <ele>9.9</ele>
      </trkpt>
      <trkpt lat="46.62277" lon="-1.85742">
        <ele>9.3</ele>
      </trkpt>
      <trkpt lat="46.62296" lon="-1.85822">
        <ele>8.7</ele>
      </trkpt>
      <trkpt lat="46.62234" lon="-1.8585">
        <ele>7.8</ele>
      </trkpt>
      <trkpt lat="46.62191" lon="-1.85857">
        <ele>7.1</ele>
      </trkpt>
      <trkpt lat="46.62171" lon="-1.85867">
        <ele>6.9</ele>
      </trkpt>
      <trkpt lat="46.62141" lon="-1.85896">
        <ele>6.4</ele>
      </trkpt>
      <trkpt lat="46.62114" lon="-1.85927">
        <ele>6.7</ele>
      </trkpt>
      <trkpt lat="46.62079" lon="-1.8598">
        <ele>7.1</ele>
      </trkpt>
      <trkpt lat="46.62053" lon="-1.86018">
        <ele>7</ele>
      </trkpt>
      <trkpt lat="46.62032" lon="-1.86042">
        <ele>6.9</ele>
      </trkpt>
      <trkpt lat="46.62013" lon="-1.86052">
        <ele>6.8</ele>
      </trkpt>
      <trkpt lat="46.61987" lon="-1.86057">
        <ele>6.4</ele>
      </trkpt>
      <trkpt lat="46.6194" lon="-1.86051">
        <ele>6.4</ele>
      </trkpt>
      <trkpt lat="46.61894" lon="-1.86047">
        <ele>6.3</ele>
      </trkpt>
      <trkpt lat="46.61845" lon="-1.86043">
        <ele>6.2</ele>
      </trkpt>
      <trkpt lat="46.61805" lon="-1.86067">
        <ele>6.9</ele>
      </trkpt>
      <trkpt lat="46.61785" lon="-1.86104">
        <ele>7.5</ele>
      </trkpt>
      <trkpt lat="46.61772" lon="-1.86153">
        <ele>7.5</ele>
      </trkpt>
      <trkpt lat="46.61759" lon="-1.86196">
        <ele>7.5</ele>
      </trkpt>
      <trkpt lat="46.61749" lon="-1.86198">
        <ele>7.7</ele>
      </trkpt>
      <trkpt lat="46.61736" lon="-1.86205">
        <ele>7.6</ele>
      </trkpt>
      <trkpt lat="46.61724" lon="-1.86218">
        <ele>7.6</ele>
      </trkpt>
      <trkpt lat="46.61716" lon="-1.86226">
        <ele>7.6</ele>
      </trkpt>
      <trkpt lat="46.61701" lon="-1.86229">
        <ele>7.4</ele>
      </trkpt>
      <trkpt lat="46.61683" lon="-1.86231">
        <ele>7.3</ele>
      </trkpt>
      <trkpt lat="46.61667" lon="-1.86235">
        <ele>7.2</ele>
      </trkpt>
      <trkpt lat="46.61652" lon="-1.86239">
        <ele>7.2</ele>
      </trkpt>
      <trkpt lat="46.61629" lon="-1.86268">
        <ele>7.3</ele>
      </trkpt>
      <trkpt lat="46.61621" lon="-1.86276">
        <ele>7.3</ele>
      </trkpt>
      <trkpt lat="46.61622" lon="-1.86291">
        <ele>7.2</ele>
      </trkpt>
      <trkpt lat="46.61615" lon="-1.86291">
        <ele>7.2</ele>
      </trkpt>
      <trkpt lat="46.61605" lon="-1.86282">
        <ele>7.3</ele>
      </trkpt>
      <trkpt lat="46.61609" lon="-1.86273">
        <ele>7.4</ele>
      </trkpt>
      <trkpt lat="46.61609" lon="-1.8626">
        <ele>9.77875</ele>
        <time>2015-08-12T07:42:19Z</time>
      </trkpt>
      <trkpt lat="46.61608" lon="-1.86228">
        <ele>8.954575</ele>
        <time>2015-08-12T07:42:24Z</time>
      </trkpt>
      <trkpt lat="46.61604" lon="-1.86214">
        <ele>8.179406</ele>
        <time>2015-08-12T07:42:26Z</time>
      </trkpt>
      <trkpt lat="46.61598" lon="-1.86202">
        <ele>7.74125</ele>
        <time>2015-08-12T07:42:28Z</time>
      </trkpt>
      <trkpt lat="46.61585" lon="-1.86192">
        <ele>7.2</ele>
      </trkpt>
      <trkpt lat="46.61571" lon="-1.86193">
        <ele>7.5</ele>
      </trkpt>
      <trkpt lat="46.61558" lon="-1.86203">
        <ele>7.7</ele>
      </trkpt>
      <trkpt lat="46.61548" lon="-1.86194">
        <ele>9.500469</ele>
        <time>2015-08-12T07:42:38Z</time>
      </trkpt>
      <trkpt lat="46.6154" lon="-1.86181">
        <ele>9.532959</ele>
        <time>2015-08-12T07:42:40Z</time>
      </trkpt>
      <trkpt lat="46.61534" lon="-1.86165">
        <ele>9.449018</ele>
        <time>2015-08-12T07:42:42Z</time>
      </trkpt>
      <trkpt lat="46.61525" lon="-1.86156">
        <ele>9.525351</ele>
        <time>2015-08-12T07:42:44Z</time>
      </trkpt>
      <trkpt lat="46.61514" lon="-1.86156">
        <ele>9.74375</ele>
        <time>2015-08-12T07:42:46Z</time>
      </trkpt>
      <trkpt lat="46.615" lon="-1.8617">
        <ele>8</ele>
      </trkpt>
      <trkpt lat="46.61485" lon="-1.86171">
        <ele>10</ele>
        <time>2015-08-12T07:42:52Z</time>
      </trkpt>
      <trkpt lat="46.61476" lon="-1.86159">
        <ele>9.839375</ele>
        <time>2015-08-12T07:42:54Z</time>
      </trkpt>
      <trkpt lat="46.61451" lon="-1.86065">
        <ele>8.43</ele>
        <time>2015-08-12T07:43:06Z</time>
      </trkpt>
      <trkpt lat="46.61445" lon="-1.86014">
        <ele>8</ele>
        <time>2015-08-12T07:43:12Z</time>
      </trkpt>
      <trkpt lat="46.61441" lon="-1.86002">
        <ele>3.9</ele>
      </trkpt>
      <trkpt lat="46.61413" lon="-1.86044">
        <ele>5</ele>
      </trkpt>
      <trkpt lat="46.61385" lon="-1.86087">
        <ele>5.3</ele>
      </trkpt>
      <trkpt lat="46.61372" lon="-1.8608">
        <ele>5.2</ele>
      </trkpt>
      <trkpt lat="46.6136" lon="-1.86095">
        <ele>5.8917</ele>
        <time>2015-08-12T07:43:35Z</time>
      </trkpt>
      <trkpt lat="46.61348" lon="-1.86093">
        <ele>5.4343</ele>
        <time>2015-08-12T07:43:38Z</time>
      </trkpt>
      <trkpt lat="46.61313" lon="-1.86067">
        <ele>5.634297</ele>
        <time>2015-08-12T07:43:44Z</time>
      </trkpt>
      <trkpt lat="46.61305" lon="-1.86059">
        <ele>5.765062</ele>
        <time>2015-08-12T07:43:46Z</time>
      </trkpt>
      <trkpt lat="46.61291" lon="-1.86039">
        <ele>6.1102</ele>
        <time>2015-08-12T07:43:52Z</time>
      </trkpt>
      <trkpt lat="46.61268" lon="-1.85994">
        <ele>7.10455</ele>
        <time>2015-08-12T07:44:02Z</time>
      </trkpt>
      <trkpt lat="46.61247" lon="-1.85927">
        <ele>9.207756</ele>
        <time>2015-08-12T07:44:13Z</time>
      </trkpt>
      <trkpt lat="46.61245" lon="-1.85908">
        <ele>9.581162</ele>
        <time>2015-08-12T07:44:16Z</time>
      </trkpt>
      <trkpt lat="46.61245" lon="-1.85888">
        <ele>10</ele>
        <time>2015-08-12T07:44:19Z</time>
      </trkpt>
      <trkpt lat="46.61243" lon="-1.85872">
        <ele>10</ele>
        <time>2015-08-12T07:44:21Z</time>
      </trkpt>
      <trkpt lat="46.61225" lon="-1.85825">
        <ele>10</ele>
        <time>2015-08-12T07:44:27Z</time>
      </trkpt>
      <trkpt lat="46.61221" lon="-1.85809">
        <ele>9.94765</ele>
        <time>2015-08-12T07:44:29Z</time>
      </trkpt>
      <trkpt lat="46.61218" lon="-1.85778">
        <ele>9.95905</ele>
        <time>2015-08-12T07:44:33Z</time>
      </trkpt>
      <trkpt lat="46.61203" lon="-1.85701">
        <ele>12.1</ele>
      </trkpt>
      <trkpt lat="46.61185" lon="-1.85648">
        <ele>13.776125</ele>
        <time>2015-08-12T07:44:53Z</time>
      </trkpt>
      <trkpt lat="46.61176" lon="-1.85572">
        <ele>14.744687</ele>
        <time>2015-08-12T07:45:04Z</time>
      </trkpt>
      <trkpt lat="46.61171" lon="-1.85556">
        <ele>14.803375</ele>
        <time>2015-08-12T07:45:07Z</time>
      </trkpt>
      <trkpt lat="46.61166" lon="-1.85553">
        <ele>12.4</ele>
      </trkpt>
      <trkpt lat="46.61161" lon="-1.85545">
        <ele>14.657885</ele>
        <time>2015-08-12T07:45:10Z</time>
      </trkpt>
      <trkpt lat="46.61144" lon="-1.85536">
        <ele>14.430469</ele>
        <time>2015-08-12T07:45:14Z</time>
      </trkpt>
      <trkpt lat="46.61135" lon="-1.85525">
        <ele>14.449375</ele>
        <time>2015-08-12T07:45:16Z</time>
      </trkpt>
      <trkpt lat="46.6113" lon="-1.8551">
        <ele>14.5916</ele>
        <time>2015-08-12T07:45:18Z</time>
      </trkpt>
      <trkpt lat="46.61114" lon="-1.85494">
        <ele>12.7</ele>
      </trkpt>
      <trkpt lat="46.61101" lon="-1.85489">
        <ele>14.204356</ele>
        <time>2015-08-12T07:45:24Z</time>
      </trkpt>
      <trkpt lat="46.61089" lon="-1.85464">
        <ele>14</ele>
        <time>2015-08-12T07:45:29Z</time>
      </trkpt>
      <trkpt lat="46.6108" lon="-1.85456">
        <ele>14</ele>
        <time>2015-08-12T07:45:31Z</time>
      </trkpt>
      <trkpt lat="46.60894" lon="-1.85365">
        <ele>10.61125</ele>
        <time>2015-08-12T07:46:03Z</time>
      </trkpt>
      <trkpt lat="46.60772" lon="-1.85257">
        <ele>10.623468</ele>
        <time>2015-08-12T07:46:28Z</time>
      </trkpt>
      <trkpt lat="46.60764" lon="-1.85247">
        <ele>10.384582</ele>
        <time>2015-08-12T07:46:34Z</time>
      </trkpt>
      <trkpt lat="46.60682" lon="-1.85208">
        <ele>10</ele>
        <time>2015-08-12T07:46:55Z</time>
      </trkpt>
      <trkpt lat="46.60577" lon="-1.85164">
        <ele>10</ele>
        <time>2015-08-12T07:47:09Z</time>
      </trkpt>
      <trkpt lat="46.60448" lon="-1.85102">
        <ele>9.540612</ele>
        <time>2015-08-12T07:47:27Z</time>
      </trkpt>
      <trkpt lat="46.60402" lon="-1.85086">
        <ele>9.691875</ele>
        <time>2015-08-12T07:47:33Z</time>
      </trkpt>
      <trkpt lat="46.60307" lon="-1.85036">
        <ele>8.269751</ele>
        <time>2015-08-12T07:47:47Z</time>
      </trkpt>
      <trkpt lat="46.60265" lon="-1.85017">
        <ele>7.670219</ele>
        <time>2015-08-12T07:48:02Z</time>
      </trkpt>
      <trkpt lat="46.60263" lon="-1.85004">
        <ele>7.290125</ele>
        <time>2015-08-12T07:48:05Z</time>
      </trkpt>
      <trkpt lat="46.60269" lon="-1.84987">
        <ele>6.89435</ele>
        <time>2015-08-12T07:48:08Z</time>
      </trkpt>
      <trkpt lat="46.60294" lon="-1.84825">
        <ele>5.620156</ele>
        <time>2015-08-12T07:48:30Z</time>
      </trkpt>
      <trkpt lat="46.60298" lon="-1.84791">
        <ele>5.2511</ele>
        <time>2015-08-12T07:48:34Z</time>
      </trkpt>
      <trkpt lat="46.6031" lon="-1.84724">
        <ele>5.00265</ele>
        <time>2015-08-12T07:48:42Z</time>
      </trkpt>
      <trkpt lat="46.60314" lon="-1.84707">
        <ele>5.000372</ele>
        <time>2015-08-12T07:48:44Z</time>
      </trkpt>
      <trkpt lat="46.60328" lon="-1.84683">
        <ele>5</ele>
        <time>2015-08-12T07:48:48Z</time>
      </trkpt>
      <trkpt lat="46.60333" lon="-1.84669">
        <ele>5</ele>
        <time>2015-08-12T07:48:50Z</time>
      </trkpt>
      <trkpt lat="46.60354" lon="-1.84562">
        <ele>5</ele>
        <time>2015-08-12T07:49:04Z</time>
      </trkpt>
      <trkpt lat="46.60355" lon="-1.84533">
        <ele>5</ele>
        <time>2015-08-12T07:49:08Z</time>
      </trkpt>
      <trkpt lat="46.60352" lon="-1.84486">
        <ele>4.903544</ele>
        <time>2015-08-12T07:49:14Z</time>
      </trkpt>
      <trkpt lat="46.60343" lon="-1.84474">
        <ele>4.733656</ele>
        <time>2015-08-12T07:49:17Z</time>
      </trkpt>
      <trkpt lat="46.60268" lon="-1.84485">
        <ele>5</ele>
        <time>2015-08-12T07:49:31Z</time>
      </trkpt>
      <trkpt lat="46.60225" lon="-1.84485">
        <ele>5</ele>
        <time>2015-08-12T07:49:39Z</time>
      </trkpt>
      <trkpt lat="46.60146" lon="-1.8446">
        <ele>5</ele>
        <time>2015-08-12T07:49:57Z</time>
      </trkpt>
      <trkpt lat="46.60124" lon="-1.84451">
        <ele>5.225266</ele>
        <time>2015-08-12T07:50:02Z</time>
      </trkpt>
      <trkpt lat="46.60086" lon="-1.84441">
        <ele>5.79125</ele>
        <time>2015-08-12T07:50:10Z</time>
      </trkpt>
      <trkpt lat="46.60006" lon="-1.84434">
        <ele>5.808125</ele>
        <time>2015-08-12T07:50:24Z</time>
      </trkpt>
      <trkpt lat="46.5995" lon="-1.84439">
        <ele>4.5305</ele>
        <time>2015-08-12T07:50:32Z</time>
      </trkpt>
      <trkpt lat="46.59921" lon="-1.84438">
        <ele>4.1051</ele>
        <time>2015-08-12T07:50:36Z</time>
      </trkpt>
      <trkpt lat="46.59907" lon="-1.84446">
        <ele>4</ele>
        <time>2015-08-12T07:50:38Z</time>
      </trkpt>
      <trkpt lat="46.5988" lon="-1.8447">
        <ele>4</ele>
        <time>2015-08-12T07:50:42Z</time>
      </trkpt>
      <trkpt lat="46.59867" lon="-1.84473">
        <ele>4</ele>
        <time>2015-08-12T07:50:44Z</time>
      </trkpt>
      <trkpt lat="46.5984" lon="-1.84464">
        <ele>4</ele>
        <time>2015-08-12T07:50:48Z</time>
      </trkpt>
      <trkpt lat="46.59826" lon="-1.84458">
        <ele>4</ele>
        <time>2015-08-12T07:50:50Z</time>
      </trkpt>
      <trkpt lat="46.59816" lon="-1.84447">
        <ele>4</ele>
        <time>2015-08-12T07:50:52Z</time>
      </trkpt>
      <trkpt lat="46.59802" lon="-1.84414">
        <ele>4</ele>
        <time>2015-08-12T07:50:56Z</time>
      </trkpt>
      <trkpt lat="46.59783" lon="-1.84344">
        <ele>4</ele>
        <time>2015-08-12T07:51:04Z</time>
      </trkpt>
      <trkpt lat="46.59772" lon="-1.84313">
        <ele>4</ele>
        <time>2015-08-12T07:51:08Z</time>
      </trkpt>
      <trkpt lat="46.59744" lon="-1.84249">
        <ele>4</ele>
        <time>2015-08-12T07:51:16Z</time>
      </trkpt>
      <trkpt lat="46.59697" lon="-1.84163">
        <ele>4</ele>
        <time>2015-08-12T07:51:28Z</time>
      </trkpt>
      <trkpt lat="46.59683" lon="-1.84133">
        <ele>4</ele>
        <time>2015-08-12T07:51:32Z</time>
      </trkpt>
      <trkpt lat="46.59641" lon="-1.84024">
        <ele>4</ele>
        <time>2015-08-12T07:51:46Z</time>
      </trkpt>
      <trkpt lat="46.59633" lon="-1.83992">
        <ele>4</ele>
        <time>2015-08-12T07:51:50Z</time>
      </trkpt>
      <trkpt lat="46.59628" lon="-1.83933">
        <ele>4</ele>
        <time>2015-08-12T07:51:58Z</time>
      </trkpt>
      <trkpt lat="46.59624" lon="-1.8392">
        <ele>4</ele>
        <time>2015-08-12T07:52:00Z</time>
      </trkpt>
      <trkpt lat="46.59564" lon="-1.8381">
        <ele>4</ele>
        <time>2015-08-12T07:52:18Z</time>
      </trkpt>
      <trkpt lat="46.59558" lon="-1.8378">
        <ele>4</ele>
        <time>2015-08-12T07:52:22Z</time>
      </trkpt>
      <trkpt lat="46.59552" lon="-1.83701">
        <ele>4</ele>
        <time>2015-08-12T07:52:32Z</time>
      </trkpt>
      <trkpt lat="46.59552" lon="-1.83671">
        <ele>4</ele>
        <time>2015-08-12T07:52:36Z</time>
      </trkpt>
      <trkpt lat="46.59561" lon="-1.8361">
        <ele>4</ele>
        <time>2015-08-12T07:52:46Z</time>
      </trkpt>
      <trkpt lat="46.59561" lon="-1.83592">
        <ele>4</ele>
        <time>2015-08-12T07:52:49Z</time>
      </trkpt>
      <trkpt lat="46.59551" lon="-1.83442">
        <ele>4</ele>
        <time>2015-08-12T07:53:11Z</time>
      </trkpt>
      <trkpt lat="46.59553" lon="-1.83423">
        <ele>4</ele>
        <time>2015-08-12T07:53:14Z</time>
      </trkpt>
      <trkpt lat="46.59566" lon="-1.8338">
        <ele>4</ele>
        <time>2015-08-12T07:53:21Z</time>
      </trkpt>
      <trkpt lat="46.59567" lon="-1.83349">
        <ele>4</ele>
        <time>2015-08-12T07:53:26Z</time>
      </trkpt>
      <trkpt lat="46.59565" lon="-1.8333">
        <ele>4</ele>
        <time>2015-08-12T07:53:29Z</time>
      </trkpt>
      <trkpt lat="46.59568" lon="-1.833">
        <ele>4</ele>
        <time>2015-08-12T07:53:35Z</time>
      </trkpt>
      <trkpt lat="46.59559" lon="-1.83298">
        <ele>4</ele>
        <time>2015-08-12T07:53:40Z</time>
      </trkpt>
      <trkpt lat="46.59531" lon="-1.83319">
        <ele>4</ele>
        <time>2015-08-12T07:53:49Z</time>
      </trkpt>
      <trkpt lat="46.59521" lon="-1.83323">
        <ele>4</ele>
        <time>2015-08-12T07:53:52Z</time>
      </trkpt>
      <trkpt lat="46.59436" lon="-1.83374">
        <ele>4</ele>
        <time>2015-08-12T07:54:24Z</time>
      </trkpt>
      <trkpt lat="46.59424" lon="-1.83376">
        <ele>4</ele>
        <time>2015-08-12T07:54:28Z</time>
      </trkpt>
      <trkpt lat="46.59414" lon="-1.83373">
        <ele>4</ele>
        <time>2015-08-12T07:54:33Z</time>
      </trkpt>
      <trkpt lat="46.59347" lon="-1.83339">
        <ele>4</ele>
        <time>2015-08-12T07:54:50Z</time>
      </trkpt>
      <trkpt lat="46.5932" lon="-1.83328">
        <ele>4</ele>
        <time>2015-08-12T07:54:54Z</time>
      </trkpt>
      <trkpt lat="46.59284" lon="-1.83322">
        <ele>4</ele>
        <time>2015-08-12T07:55:00Z</time>
      </trkpt>
      <trkpt lat="46.59275" lon="-1.83329">
        <ele>4</ele>
        <time>2015-08-12T07:55:02Z</time>
      </trkpt>
      <trkpt lat="46.59272" lon="-1.83345">
        <ele>4</ele>
        <time>2015-08-12T07:55:04Z</time>
      </trkpt>
      <trkpt lat="46.59272" lon="-1.83415">
        <ele>4</ele>
        <time>2015-08-12T07:55:12Z</time>
      </trkpt>
      <trkpt lat="46.59253" lon="-1.83484">
        <ele>4</ele>
        <time>2015-08-12T07:55:20Z</time>
      </trkpt>
      <trkpt lat="46.59246" lon="-1.835">
        <ele>4</ele>
        <time>2015-08-12T07:55:22Z</time>
      </trkpt>
      <trkpt lat="46.59236" lon="-1.8351">
        <ele>4</ele>
        <time>2015-08-12T07:55:24Z</time>
      </trkpt>
      <trkpt lat="46.59185" lon="-1.83524">
        <ele>4</ele>
        <time>2015-08-12T07:55:32Z</time>
      </trkpt>
      <trkpt lat="46.59174" lon="-1.83533">
        <ele>4</ele>
        <time>2015-08-12T07:55:34Z</time>
      </trkpt>
      <trkpt lat="46.59126" lon="-1.83594">
        <ele>3.82</ele>
        <time>2015-08-12T07:55:44Z</time>
      </trkpt>
      <trkpt lat="46.59055" lon="-1.83726">
        <ele>3</ele>
        <time>2015-08-12T07:56:02Z</time>
      </trkpt>
      <trkpt lat="46.59036" lon="-1.8375">
        <ele>3.055</ele>
        <time>2015-08-12T07:56:06Z</time>
      </trkpt>
      <trkpt lat="46.59025" lon="-1.83758">
        <ele>3.285</ele>
        <time>2015-08-12T07:56:08Z</time>
      </trkpt>
      <trkpt lat="46.5899" lon="-1.83776">
        <ele>4</ele>
        <time>2015-08-12T07:56:14Z</time>
      </trkpt>
      <trkpt lat="46.58952" lon="-1.83793">
        <ele>4</ele>
        <time>2015-08-12T07:56:20Z</time>
      </trkpt>
      <trkpt lat="46.58926" lon="-1.83797">
        <ele>4</ele>
        <time>2015-08-12T07:56:24Z</time>
      </trkpt>
      <trkpt lat="46.58802" lon="-1.83846">
        <ele>4</ele>
        <time>2015-08-12T07:56:46Z</time>
      </trkpt>
      <trkpt lat="46.58771" lon="-1.83856">
        <ele>4</ele>
        <time>2015-08-12T07:56:52Z</time>
      </trkpt>
      <trkpt lat="46.5873" lon="-1.83876">
        <ele>4</ele>
        <time>2015-08-12T07:57:01Z</time>
      </trkpt>
      <trkpt lat="46.58705" lon="-1.83883">
        <ele>4</ele>
        <time>2015-08-12T07:57:07Z</time>
      </trkpt>
      <trkpt lat="46.58669" lon="-1.839">
        <ele>4</ele>
        <time>2015-08-12T07:57:20Z</time>
      </trkpt>
      <trkpt lat="46.58648" lon="-1.83908">
        <ele>4</ele>
        <time>2015-08-12T07:57:24Z</time>
      </trkpt>
      <trkpt lat="46.5864" lon="-1.83901">
        <ele>4</ele>
        <time>2015-08-12T07:57:30Z</time>
      </trkpt>
      <trkpt lat="46.58635" lon="-1.83914">
        <ele>4</ele>
        <time>2015-08-12T07:57:37Z</time>
      </trkpt>
      <trkpt lat="46.58606" lon="-1.83939">
        <ele>4.445</ele>
        <time>2015-08-12T07:57:46Z</time>
      </trkpt>
      <trkpt lat="46.58559" lon="-1.83966">
        <ele>5</ele>
        <time>2015-08-12T07:57:56Z</time>
      </trkpt>
      <trkpt lat="46.58536" lon="-1.83966">
        <ele>5</ele>
        <time>2015-08-12T07:58:01Z</time>
      </trkpt>
      <trkpt lat="46.58478" lon="-1.83947">
        <ele>4.865694</ele>
        <time>2015-08-12T07:58:13Z</time>
      </trkpt>
      <trkpt lat="46.58458" lon="-1.83933">
        <ele>4.5255</ele>
        <time>2015-08-12T07:58:17Z</time>
      </trkpt>
      <trkpt lat="46.58436" lon="-1.83926">
        <ele>4.204406</ele>
        <time>2015-08-12T07:58:21Z</time>
      </trkpt>
      <trkpt lat="46.58427" lon="-1.8392">
        <ele>4.106016</ele>
        <time>2015-08-12T07:58:23Z</time>
      </trkpt>
      <trkpt lat="46.5842" lon="-1.83904">
        <ele>4.051875</ele>
        <time>2015-08-12T07:58:26Z</time>
      </trkpt>
      <trkpt lat="46.58375" lon="-1.83854">
        <ele>4.7525</ele>
        <time>2015-08-12T07:58:37Z</time>
      </trkpt>
      <trkpt lat="46.58361" lon="-1.83833">
        <ele>5</ele>
        <time>2015-08-12T07:58:41Z</time>
      </trkpt>
      <trkpt lat="46.5835" lon="-1.83809">
        <ele>5.1023</ele>
        <time>2015-08-12T07:58:45Z</time>
      </trkpt>
      <trkpt lat="46.58332" lon="-1.83789">
        <ele>5.455128</ele>
        <time>2015-08-12T07:58:50Z</time>
      </trkpt>
      <trkpt lat="46.58322" lon="-1.83782">
        <ele>5.696719</ele>
        <time>2015-08-12T07:58:52Z</time>
      </trkpt>
      <trkpt lat="46.58312" lon="-1.8378">
        <ele>5.976991</ele>
        <time>2015-08-12T07:58:54Z</time>
      </trkpt>
      <trkpt lat="46.58282" lon="-1.83792">
        <ele>7.289475</ele>
        <time>2015-08-12T07:59:00Z</time>
      </trkpt>
      <trkpt lat="46.58272" lon="-1.83798">
        <ele>7.960912</ele>
        <time>2015-08-12T07:59:02Z</time>
      </trkpt>
      <trkpt lat="46.58263" lon="-1.838">
        <ele>8.179847</ele>
        <time>2015-08-12T07:59:04Z</time>
      </trkpt>
      <trkpt lat="46.58252" lon="-1.83793">
        <ele>8.134734</ele>
        <time>2015-08-12T07:59:06Z</time>
      </trkpt>
      <trkpt lat="46.58244" lon="-1.83784">
        <ele>8.058275</ele>
        <time>2015-08-12T07:59:08Z</time>
      </trkpt>
      <trkpt lat="46.58243" lon="-1.83757">
        <ele>7.508906</ele>
        <time>2015-08-12T07:59:12Z</time>
      </trkpt>
      <trkpt lat="46.58235" lon="-1.83743">
        <ele>7.307437</ele>
        <time>2015-08-12T07:59:14Z</time>
      </trkpt>
      <trkpt lat="46.58227" lon="-1.83736">
        <ele>7.205</ele>
        <time>2015-08-12T07:59:16Z</time>
      </trkpt>
      <trkpt lat="46.58218" lon="-1.83731">
        <ele>7.0725</ele>
        <time>2015-08-12T07:59:18Z</time>
      </trkpt>
      <trkpt lat="46.58183" lon="-1.83728">
        <ele>7.096656</ele>
        <time>2015-08-12T07:59:26Z</time>
      </trkpt>
      <trkpt lat="46.58157" lon="-1.83723">
        <ele>7.86619</ele>
        <time>2015-08-12T07:59:30Z</time>
      </trkpt>
      <trkpt lat="46.58146" lon="-1.83724">
        <ele>8.321056</ele>
        <time>2015-08-12T07:59:32Z</time>
      </trkpt>
      <trkpt lat="46.58136" lon="-1.8373">
        <ele>9.008094</ele>
        <time>2015-08-12T07:59:34Z</time>
      </trkpt>
      <trkpt lat="46.58128" lon="-1.83737">
        <ele>9.8199</ele>
        <time>2015-08-12T07:59:36Z</time>
      </trkpt>
      <trkpt lat="46.58115" lon="-1.83736">
        <ele>10.635037</ele>
        <time>2015-08-12T07:59:39Z</time>
      </trkpt>
      <trkpt lat="46.58082" lon="-1.83719">
        <ele>12.678882</ele>
        <time>2015-08-12T07:59:47Z</time>
      </trkpt>
      <trkpt lat="46.58067" lon="-1.83696">
        <ele>13.350825</ele>
        <time>2015-08-12T07:59:52Z</time>
      </trkpt>
      <trkpt lat="46.58048" lon="-1.83659">
        <ele>12.34514</ele>
        <time>2015-08-12T07:59:59Z</time>
      </trkpt>
      <trkpt lat="46.58043" lon="-1.83645">
        <ele>11.850687</ele>
        <time>2015-08-12T08:00:01Z</time>
      </trkpt>
      <trkpt lat="46.58035" lon="-1.8361">
        <ele>11.31</ele>
        <time>2015-08-12T08:00:07Z</time>
      </trkpt>
      <trkpt lat="46.58025" lon="-1.83584">
        <ele>12.84</ele>
        <time>2015-08-12T08:00:11Z</time>
      </trkpt>
      <trkpt lat="46.58021" lon="-1.83565">
        <ele>13.44</ele>
        <time>2015-08-12T08:00:14Z</time>
      </trkpt>
      <trkpt lat="46.5802" lon="-1.8353">
        <ele>13.56455</ele>
        <time>2015-08-12T08:00:18Z</time>
      </trkpt>
      <trkpt lat="46.58018" lon="-1.83514">
        <ele>13.744381</ele>
        <time>2015-08-12T08:00:20Z</time>
      </trkpt>
      <trkpt lat="46.58009" lon="-1.83484">
        <ele>13.933125</ele>
        <time>2015-08-12T08:00:25Z</time>
      </trkpt>
      <trkpt lat="46.58003" lon="-1.83469">
        <ele>13.913975</ele>
        <time>2015-08-12T08:00:27Z</time>
      </trkpt>
      <trkpt lat="46.57958" lon="-1.834">
        <ele>11.412528</ele>
        <time>2015-08-12T08:00:41Z</time>
      </trkpt>
      <trkpt lat="46.57952" lon="-1.83361">
        <ele>10.766075</ele>
        <time>2015-08-12T08:00:45Z</time>
      </trkpt>
      <trkpt lat="46.57932" lon="-1.83284">
        <ele>9.122137</ele>
        <time>2015-08-12T08:00:53Z</time>
      </trkpt>
      <trkpt lat="46.57926" lon="-1.83268">
        <ele>9.187119</ele>
        <time>2015-08-12T08:00:55Z</time>
      </trkpt>
      <trkpt lat="46.57902" lon="-1.83224">
        <ele>9.28161</ele>
        <time>2015-08-12T08:01:01Z</time>
      </trkpt>
      <trkpt lat="46.57881" lon="-1.83201">
        <ele>9.116375</ele>
        <time>2015-08-12T08:01:05Z</time>
      </trkpt>
      <trkpt lat="46.57869" lon="-1.83193">
        <ele>9.291869</ele>
        <time>2015-08-12T08:01:07Z</time>
      </trkpt>
      <trkpt lat="46.5785" lon="-1.83174">
        <ele>9.37444</ele>
        <time>2015-08-12T08:01:11Z</time>
      </trkpt>
      <trkpt lat="46.57841" lon="-1.83161">
        <ele>9.255</ele>
        <time>2015-08-12T08:01:14Z</time>
      </trkpt>
      <trkpt lat="46.57835" lon="-1.83145">
        <ele>9.029375</ele>
        <time>2015-08-12T08:01:16Z</time>
      </trkpt>
      <trkpt lat="46.57834" lon="-1.83132">
        <ele>9</ele>
        <time>2015-08-12T08:01:18Z</time>
      </trkpt>
      <trkpt lat="46.57835" lon="-1.83113">
        <ele>9</ele>
        <time>2015-08-12T08:01:21Z</time>
      </trkpt>
      <trkpt lat="46.5784" lon="-1.83083">
        <ele>9</ele>
        <time>2015-08-12T08:01:25Z</time>
      </trkpt>
      <trkpt lat="46.57847" lon="-1.83051">
        <ele>9.457547</ele>
        <time>2015-08-12T08:01:29Z</time>
      </trkpt>
      <trkpt lat="46.57848" lon="-1.83013">
        <ele>10.069375</ele>
        <time>2015-08-12T08:01:33Z</time>
      </trkpt>
      <trkpt lat="46.57832" lon="-1.82922">
        <ele>7.743128</ele>
        <time>2015-08-12T08:01:43Z</time>
      </trkpt>
      <trkpt lat="46.5782" lon="-1.82877">
        <ele>8.026875</ele>
        <time>2015-08-12T08:01:49Z</time>
      </trkpt>
      <trkpt lat="46.57819" lon="-1.8286">
        <ele>8.242388</ele>
        <time>2015-08-12T08:01:51Z</time>
      </trkpt>
      <trkpt lat="46.57816" lon="-1.82846">
        <ele>8.365782</ele>
        <time>2015-08-12T08:01:53Z</time>
      </trkpt>
      <trkpt lat="46.57814" lon="-1.82828">
        <ele>8.255187</ele>
        <time>2015-08-12T08:01:56Z</time>
      </trkpt>
      <trkpt lat="46.57805" lon="-1.82813">
        <ele>8.702375</ele>
        <time>2015-08-12T08:01:59Z</time>
      </trkpt>
      <trkpt lat="46.578" lon="-1.82795">
        <ele>9.5784</ele>
        <time>2015-08-12T08:02:02Z</time>
      </trkpt>
      <trkpt lat="46.57801" lon="-1.82775">
        <ele>9.900275</ele>
        <time>2015-08-12T08:02:04Z</time>
      </trkpt>
      <trkpt lat="46.57797" lon="-1.82755">
        <ele>10.304</ele>
        <time>2015-08-12T08:02:06Z</time>
      </trkpt>
      <trkpt lat="46.57797" lon="-1.82723">
        <ele>11.19875</ele>
        <time>2015-08-12T08:02:10Z</time>
      </trkpt>
      <trkpt lat="46.5778" lon="-1.82654">
        <ele>12.835</ele>
        <time>2015-08-12T08:02:18Z</time>
      </trkpt>
      <trkpt lat="46.57769" lon="-1.82623">
        <ele>13.105985</ele>
        <time>2015-08-12T08:02:22Z</time>
      </trkpt>
      <trkpt lat="46.57766" lon="-1.82588">
        <ele>12.683597</ele>
        <time>2015-08-12T08:02:26Z</time>
      </trkpt>
      <trkpt lat="46.57761" lon="-1.82574">
        <ele>12.486338</ele>
        <time>2015-08-12T08:02:28Z</time>
      </trkpt>
      <trkpt lat="46.57753" lon="-1.82562">
        <ele>12.295356</ele>
        <time>2015-08-12T08:02:30Z</time>
      </trkpt>
      <trkpt lat="46.57727" lon="-1.82538">
        <ele>11.849443</ele>
        <time>2015-08-12T08:02:36Z</time>
      </trkpt>
      <trkpt lat="46.57708" lon="-1.82533">
        <ele>11.702606</ele>
        <time>2015-08-12T08:02:40Z</time>
      </trkpt>
      <trkpt lat="46.57683" lon="-1.8252">
        <ele>11.24705</ele>
        <time>2015-08-12T08:02:44Z</time>
      </trkpt>
      <trkpt lat="46.57655" lon="-1.82502">
        <ele>10.93735</ele>
        <time>2015-08-12T08:02:50Z</time>
      </trkpt>
      <trkpt lat="46.57647" lon="-1.82493">
        <ele>10.9631</ele>
        <time>2015-08-12T08:02:52Z</time>
      </trkpt>
      <trkpt lat="46.57638" lon="-1.82445">
        <ele>11.082829</ele>
        <time>2015-08-12T08:02:58Z</time>
      </trkpt>
      <trkpt lat="46.57636" lon="-1.82415">
        <ele>11.016663</ele>
        <time>2015-08-12T08:03:02Z</time>
      </trkpt>
      <trkpt lat="46.57629" lon="-1.82388">
        <ele>10.873981</ele>
        <time>2015-08-12T08:03:06Z</time>
      </trkpt>
      <trkpt lat="46.57627" lon="-1.82357">
        <ele>10.630756</ele>
        <time>2015-08-12T08:03:10Z</time>
      </trkpt>
      <trkpt lat="46.57627" lon="-1.82339">
        <ele>10.2934</ele>
        <time>2015-08-12T08:03:13Z</time>
      </trkpt>
      <trkpt lat="46.57634" lon="-1.82272">
        <ele>6.738</ele>
        <time>2015-08-12T08:03:21Z</time>
      </trkpt>
      <trkpt lat="46.57628" lon="-1.8226">
        <ele>6.307306</ele>
        <time>2015-08-12T08:03:26Z</time>
      </trkpt>
      <trkpt lat="46.57606" lon="-1.82256">
        <ele>6.365</ele>
        <time>2015-08-12T08:03:31Z</time>
      </trkpt>
      <trkpt lat="46.57596" lon="-1.8225">
        <ele>6.22375</ele>
        <time>2015-08-12T08:03:33Z</time>
      </trkpt>
      <trkpt lat="46.57574" lon="-1.82244">
        <ele>6.08875</ele>
        <time>2015-08-12T08:03:37Z</time>
      </trkpt>
      <trkpt lat="46.57533" lon="-1.82224">
        <ele>5.54875</ele>
        <time>2015-08-12T08:03:45Z</time>
      </trkpt>
      <trkpt lat="46.5749" lon="-1.82211">
        <ele>5.26</ele>
        <time>2015-08-12T08:03:53Z</time>
      </trkpt>
      <trkpt lat="46.57479" lon="-1.82206">
        <ele>5.1375</ele>
        <time>2015-08-12T08:03:55Z</time>
      </trkpt>
      <trkpt lat="46.57449" lon="-1.82181">
        <ele>5.130025</ele>
        <time>2015-08-12T08:04:01Z</time>
      </trkpt>
      <trkpt lat="46.57439" lon="-1.82175">
        <ele>5.151194</ele>
        <time>2015-08-12T08:04:03Z</time>
      </trkpt>
      <trkpt lat="46.57416" lon="-1.82166">
        <ele>5.06125</ele>
        <time>2015-08-12T08:04:08Z</time>
      </trkpt>
      <trkpt lat="46.57397" lon="-1.82145">
        <ele>4.4575</ele>
        <time>2015-08-12T08:04:12Z</time>
      </trkpt>
      <trkpt lat="46.57378" lon="-1.82129">
        <ele>4.215628</ele>
        <time>2015-08-12T08:04:16Z</time>
      </trkpt>
      <trkpt lat="46.57354" lon="-1.82119">
        <ele>4.51335</ele>
        <time>2015-08-12T08:04:20Z</time>
      </trkpt>
      <trkpt lat="46.57342" lon="-1.82119">
        <ele>4.778734</ele>
        <time>2015-08-12T08:04:22Z</time>
      </trkpt>
      <trkpt lat="46.57307" lon="-1.82127">
        <ele>4.349725</ele>
        <time>2015-08-12T08:04:28Z</time>
      </trkpt>
      <trkpt lat="46.57298" lon="-1.82132">
        <ele>4.347475</ele>
        <time>2015-08-12T08:04:30Z</time>
      </trkpt>
      <trkpt lat="46.57272" lon="-1.82139">
        <ele>4.432731</ele>
        <time>2015-08-12T08:04:36Z</time>
      </trkpt>
      <trkpt lat="46.57249" lon="-1.82139">
        <ele>4.389375</ele>
        <time>2015-08-12T08:04:40Z</time>
      </trkpt>
      <trkpt lat="46.57238" lon="-1.82132">
        <ele>4.785</ele>
        <time>2015-08-12T08:04:42Z</time>
      </trkpt>
      <trkpt lat="46.5723" lon="-1.82121">
        <ele>5.009375</ele>
        <time>2015-08-12T08:04:44Z</time>
      </trkpt>
      <trkpt lat="46.57223" lon="-1.82105">
        <ele>5.106875</ele>
        <time>2015-08-12T08:04:46Z</time>
      </trkpt>
      <trkpt lat="46.5719" lon="-1.82002">
        <ele>6.07125</ele>
        <time>2015-08-12T08:05:00Z</time>
      </trkpt>
      <trkpt lat="46.57179" lon="-1.8196">
        <ele>5.822256</ele>
        <time>2015-08-12T08:05:06Z</time>
      </trkpt>
      <trkpt lat="46.57161" lon="-1.81921">
        <ele>4.62</ele>
        <time>2015-08-12T08:05:13Z</time>
      </trkpt>
      <trkpt lat="46.57144" lon="-1.81907">
        <ele>4.836587</ele>
        <time>2015-08-12T08:05:18Z</time>
      </trkpt>
      <trkpt lat="46.57132" lon="-1.81902">
        <ele>5.158225</ele>
        <time>2015-08-12T08:05:21Z</time>
      </trkpt>
      <trkpt lat="46.57122" lon="-1.81892">
        <ele>5.090625</ele>
        <time>2015-08-12T08:05:24Z</time>
      </trkpt>
      <trkpt lat="46.57109" lon="-1.81884">
        <ele>5.091875</ele>
        <time>2015-08-12T08:05:27Z</time>
      </trkpt>
      <trkpt lat="46.57059" lon="-1.81875">
        <ele>5.478113</ele>
        <time>2015-08-12T08:05:37Z</time>
      </trkpt>
      <trkpt lat="46.57034" lon="-1.81876">
        <ele>5.521016</ele>
        <time>2015-08-12T08:05:41Z</time>
      </trkpt>
      <trkpt lat="46.57022" lon="-1.8188">
        <ele>5.433988</ele>
        <time>2015-08-12T08:05:43Z</time>
      </trkpt>
      <trkpt lat="46.57" lon="-1.81892">
        <ele>5.1983</ele>
        <time>2015-08-12T08:05:47Z</time>
      </trkpt>
      <trkpt lat="46.56989" lon="-1.81901">
        <ele>5.009706</ele>
        <time>2015-08-12T08:05:49Z</time>
      </trkpt>
      <trkpt lat="46.56974" lon="-1.81919">
        <ele>4.606881</ele>
        <time>2015-08-12T08:05:53Z</time>
      </trkpt>
      <trkpt lat="46.56961" lon="-1.81942">
        <ele>4.029034</ele>
        <time>2015-08-12T08:05:57Z</time>
      </trkpt>
      <trkpt lat="46.56948" lon="-1.81967">
        <ele>3.293719</ele>
        <time>2015-08-12T08:06:01Z</time>
      </trkpt>
      <trkpt lat="46.56933" lon="-1.82006">
        <ele>3</ele>
        <time>2015-08-12T08:06:07Z</time>
      </trkpt>
      <trkpt lat="46.56928" lon="-1.82025">
        <ele>3</ele>
        <time>2015-08-12T08:06:10Z</time>
      </trkpt>
      <trkpt lat="46.56921" lon="-1.82041">
        <ele>4.615875</ele>
        <time>2015-08-12T08:06:13Z</time>
      </trkpt>
      <trkpt lat="46.56911" lon="-1.82047">
        <ele>5.87385</ele>
        <time>2015-08-12T08:06:17Z</time>
      </trkpt>
      <trkpt lat="46.56891" lon="-1.82033">
        <ele>4.45</ele>
        <time>2015-08-12T08:06:23Z</time>
      </trkpt>
      <trkpt lat="46.56856" lon="-1.82004">
        <ele>4.4663</ele>
        <time>2015-08-12T08:06:34Z</time>
      </trkpt>
      <trkpt lat="46.56851" lon="-1.81992">
        <ele>4.501509</ele>
        <time>2015-08-12T08:06:37Z</time>
      </trkpt>
      <trkpt lat="46.56846" lon="-1.81943">
        <ele>4.8336</ele>
        <time>2015-08-12T08:06:46Z</time>
      </trkpt>
      <trkpt lat="46.56846" lon="-1.81908">
        <ele>5.673275</ele>
        <time>2015-08-12T08:06:52Z</time>
      </trkpt>
      <trkpt lat="46.56837" lon="-1.81868">
        <ele>6.5294</ele>
        <time>2015-08-12T08:06:58Z</time>
      </trkpt>
      <trkpt lat="46.56829" lon="-1.81853">
        <ele>6.5959</ele>
        <time>2015-08-12T08:07:01Z</time>
      </trkpt>
      <trkpt lat="46.56819" lon="-1.81842">
        <ele>6.774875</ele>
        <time>2015-08-12T08:07:04Z</time>
      </trkpt>
      <trkpt lat="46.56807" lon="-1.8182">
        <ele>6.656844</ele>
        <time>2015-08-12T08:07:08Z</time>
      </trkpt>
      <trkpt lat="46.56782" lon="-1.81789">
        <ele>8.024062</ele>
        <time>2015-08-12T08:07:15Z</time>
      </trkpt>
      <trkpt lat="46.56764" lon="-1.81774">
        <ele>8.225325</ele>
        <time>2015-08-12T08:07:19Z</time>
      </trkpt>
      <trkpt lat="46.56741" lon="-1.81749">
        <ele>8.24945</ele>
        <time>2015-08-12T08:07:25Z</time>
      </trkpt>
      <trkpt lat="46.56732" lon="-1.81744">
        <ele>8.760799</ele>
        <time>2015-08-12T08:07:27Z</time>
      </trkpt>
      <trkpt lat="46.56709" lon="-1.81717">
        <ele>8.376375</ele>
        <time>2015-08-12T08:07:33Z</time>
      </trkpt>
      <trkpt lat="46.567" lon="-1.8171">
        <ele>8.575203</ele>
        <time>2015-08-12T08:07:35Z</time>
      </trkpt>
      <trkpt lat="46.56677" lon="-1.81682">
        <ele>8.9609</ele>
        <time>2015-08-12T08:07:42Z</time>
      </trkpt>
      <trkpt lat="46.56651" lon="-1.81615">
        <ele>5.752187</ele>
        <time>2015-08-12T08:07:52Z</time>
      </trkpt>
      <trkpt lat="46.56649" lon="-1.816">
        <ele>6.3625</ele>
        <time>2015-08-12T08:07:54Z</time>
      </trkpt>
      <trkpt lat="46.56637" lon="-1.81557">
        <ele>8.738482</ele>
        <time>2015-08-12T08:08:00Z</time>
      </trkpt>
      <trkpt lat="46.56632" lon="-1.8153">
        <ele>8.545297</ele>
        <time>2015-08-12T08:08:04Z</time>
      </trkpt>
      <trkpt lat="46.56621" lon="-1.81482">
        <ele>8.04</ele>
        <time>2015-08-12T08:08:13Z</time>
      </trkpt>
      <trkpt lat="46.56612" lon="-1.81467">
        <ele>8.403749</ele>
        <time>2015-08-12T08:08:16Z</time>
      </trkpt>
      <trkpt lat="46.56591" lon="-1.81413">
        <ele>8.32375</ele>
        <time>2015-08-12T08:08:25Z</time>
      </trkpt>
      <trkpt lat="46.56593" lon="-1.81379">
        <ele>5.658125</ele>
        <time>2015-08-12T08:16:54Z</time>
      </trkpt>
      <trkpt lat="46.56574" lon="-1.8136">
        <ele>5.191875</ele>
        <time>2015-08-12T08:17:01Z</time>
      </trkpt>
      <trkpt lat="46.5653" lon="-1.81338">
        <ele>9.922925</ele>
        <time>2015-08-12T08:17:13Z</time>
      </trkpt>
      <trkpt lat="46.56513" lon="-1.81316">
        <ele>10.014575</ele>
        <time>2015-08-12T08:17:19Z</time>
      </trkpt>
      <trkpt lat="46.565" lon="-1.81293">
        <ele>8.936694</ele>
        <time>2015-08-12T08:17:23Z</time>
      </trkpt>
      <trkpt lat="46.56477" lon="-1.8126">
        <ele>9.740624</ele>
        <time>2015-08-12T08:17:30Z</time>
      </trkpt>
      <trkpt lat="46.56449" lon="-1.8123">
        <ele>10.9515</ele>
        <time>2015-08-12T08:17:38Z</time>
      </trkpt>
      <trkpt lat="46.56455" lon="-1.81213">
        <ele>8.47625</ele>
        <time>2015-08-12T08:17:42Z</time>
      </trkpt>
      <trkpt lat="46.56502" lon="-1.81178">
        <ele>3.781</ele>
        <time>2015-08-12T08:17:53Z</time>
      </trkpt>
      <trkpt lat="46.56543" lon="-1.81127">
        <ele>3.183512</ele>
        <time>2015-08-12T08:18:05Z</time>
      </trkpt>
      <trkpt lat="46.56552" lon="-1.81114">
        <ele>3.194494</ele>
        <time>2015-08-12T08:18:08Z</time>
      </trkpt>
      <trkpt lat="46.56559" lon="-1.81086">
        <ele>3.209738</ele>
        <time>2015-08-12T08:18:16Z</time>
      </trkpt>
      <trkpt lat="46.5658" lon="-1.81077">
        <ele>3.164375</ele>
        <time>2015-08-12T08:18:22Z</time>
      </trkpt>
      <trkpt lat="46.5659" lon="-1.81066">
        <ele>3.343125</ele>
        <time>2015-08-12T08:18:25Z</time>
      </trkpt>
      <trkpt lat="46.56607" lon="-1.81039">
        <ele>3.769375</ele>
        <time>2015-08-12T08:18:31Z</time>
      </trkpt>
      <trkpt lat="46.56617" lon="-1.81007">
        <ele>4.2675</ele>
        <time>2015-08-12T08:18:37Z</time>
      </trkpt>
      <trkpt lat="46.56632" lon="-1.80978">
        <ele>4.735625</ele>
        <time>2015-08-12T08:18:43Z</time>
      </trkpt>
      <trkpt lat="46.56649" lon="-1.80951">
        <ele>5</ele>
        <time>2015-08-12T08:18:49Z</time>
      </trkpt>
      <trkpt lat="46.56658" lon="-1.80943">
        <ele>5</ele>
        <time>2015-08-12T08:18:52Z</time>
      </trkpt>
      <trkpt lat="46.56679" lon="-1.80939">
        <ele>5</ele>
        <time>2015-08-12T08:18:58Z</time>
      </trkpt>
      <trkpt lat="46.56689" lon="-1.80942">
        <ele>5</ele>
        <time>2015-08-12T08:19:01Z</time>
      </trkpt>
      <trkpt lat="46.56699" lon="-1.80949">
        <ele>5</ele>
        <time>2015-08-12T08:19:04Z</time>
      </trkpt>
      <trkpt lat="46.5671" lon="-1.80946">
        <ele>5</ele>
        <time>2015-08-12T08:19:08Z</time>
      </trkpt>
      <trkpt lat="46.56776" lon="-1.80854">
        <ele>4.110925</ele>
        <time>2015-08-12T08:19:32Z</time>
      </trkpt>
      <trkpt lat="46.56799" lon="-1.80818">
        <ele>4</ele>
        <time>2015-08-12T08:19:41Z</time>
      </trkpt>
      <trkpt lat="46.56808" lon="-1.80808">
        <ele>4</ele>
        <time>2015-08-12T08:19:44Z</time>
      </trkpt>
      <trkpt lat="46.56818" lon="-1.80808">
        <ele>4</ele>
        <time>2015-08-12T08:19:48Z</time>
      </trkpt>
      <trkpt lat="46.56824" lon="-1.80819">
        <ele>4</ele>
        <time>2015-08-12T08:19:51Z</time>
      </trkpt>
      <trkpt lat="46.56878" lon="-1.809">
        <ele>4</ele>
        <time>2015-08-12T08:20:12Z</time>
      </trkpt>
      <trkpt lat="46.56922" lon="-1.80953">
        <ele>4</ele>
        <time>2015-08-12T08:20:29Z</time>
      </trkpt>
      <trkpt lat="46.56933" lon="-1.80956">
        <ele>4</ele>
        <time>2015-08-12T08:20:33Z</time>
      </trkpt>
      <trkpt lat="46.57026" lon="-1.80901">
        <ele>4</ele>
        <time>2015-08-12T08:21:01Z</time>
      </trkpt>
      <trkpt lat="46.57048" lon="-1.80891">
        <ele>4</ele>
        <time>2015-08-12T08:21:07Z</time>
      </trkpt>
      <trkpt lat="46.57076" lon="-1.80874">
        <ele>4</ele>
        <time>2015-08-12T08:21:16Z</time>
      </trkpt>
      <trkpt lat="46.57086" lon="-1.80873">
        <ele>4</ele>
        <time>2015-08-12T08:21:20Z</time>
      </trkpt>
      <trkpt lat="46.57096" lon="-1.80897">
        <ele>4</ele>
        <time>2015-08-12T08:21:26Z</time>
      </trkpt>
      <trkpt lat="46.57104" lon="-1.80908">
        <ele>4</ele>
        <time>2015-08-12T08:21:29Z</time>
      </trkpt>
      <trkpt lat="46.5711" lon="-1.80922">
        <ele>4</ele>
        <time>2015-08-12T08:21:32Z</time>
      </trkpt>
      <trkpt lat="46.57142" lon="-1.81032">
        <ele>4</ele>
        <time>2015-08-12T08:21:53Z</time>
      </trkpt>
      <trkpt lat="46.57135" lon="-1.81046">
        <ele>4</ele>
        <time>2015-08-12T08:21:57Z</time>
      </trkpt>
      <trkpt lat="46.57124" lon="-1.81049">
        <ele>4</ele>
        <time>2015-08-12T08:22:00Z</time>
      </trkpt>
      <trkpt lat="46.57115" lon="-1.81054">
        <ele>4</ele>
        <time>2015-08-12T08:22:03Z</time>
      </trkpt>
      <trkpt lat="46.57118" lon="-1.8107">
        <ele>4</ele>
        <time>2015-08-12T08:22:07Z</time>
      </trkpt>
      <trkpt lat="46.57127" lon="-1.81096">
        <ele>4</ele>
        <time>2015-08-12T08:22:13Z</time>
      </trkpt>
      <trkpt lat="46.5716" lon="-1.81148">
        <ele>4</ele>
        <time>2015-08-12T08:22:55Z</time>
      </trkpt>
      <trkpt lat="46.5722" lon="-1.81219">
        <ele>4</ele>
        <time>2015-08-12T08:23:14Z</time>
      </trkpt>
      <trkpt lat="46.57248" lon="-1.81248">
        <ele>4</ele>
        <time>2015-08-12T08:23:23Z</time>
      </trkpt>
      <trkpt lat="46.57248" lon="-1.81263">
        <ele>4</ele>
        <time>2015-08-12T08:23:26Z</time>
      </trkpt>
      <trkpt lat="46.57243" lon="-1.81277">
        <ele>4</ele>
        <time>2015-08-12T08:23:29Z</time>
      </trkpt>
      <trkpt lat="46.57216" lon="-1.81328">
        <ele>4.388544</ele>
        <time>2015-08-12T08:23:41Z</time>
      </trkpt>
      <trkpt lat="46.57213" lon="-1.8134">
        <ele>4.542265</ele>
        <time>2015-08-12T08:23:45Z</time>
      </trkpt>
      <trkpt lat="46.5722" lon="-1.81349">
        <ele>4.487675</ele>
        <time>2015-08-12T08:23:57Z</time>
      </trkpt>
      <trkpt lat="46.5725" lon="-1.81347">
        <ele>4.18875</ele>
        <time>2015-08-12T08:24:08Z</time>
      </trkpt>
      <trkpt lat="46.5726" lon="-1.81344">
        <ele>4.126875</ele>
        <time>2015-08-12T08:24:13Z</time>
      </trkpt>
      <trkpt lat="46.57305" lon="-1.81339">
        <ele>4</ele>
        <time>2015-08-12T08:24:27Z</time>
      </trkpt>
      <trkpt lat="46.57324" lon="-1.81341">
        <ele>4.01625</ele>
        <time>2015-08-12T08:24:33Z</time>
      </trkpt>
      <trkpt lat="46.57361" lon="-1.81321">
        <ele>4</ele>
        <time>2015-08-12T08:24:46Z</time>
      </trkpt>
      <trkpt lat="46.5738" lon="-1.81307">
        <ele>4.086869</ele>
        <time>2015-08-12T08:24:52Z</time>
      </trkpt>
      <trkpt lat="46.57396" lon="-1.81289">
        <ele>4.067838</ele>
        <time>2015-08-12T08:24:58Z</time>
      </trkpt>
      <trkpt lat="46.57415" lon="-1.81275">
        <ele>4</ele>
        <time>2015-08-12T08:25:04Z</time>
      </trkpt>
      <trkpt lat="46.57464" lon="-1.81217">
        <ele>4</ele>
        <time>2015-08-12T08:25:22Z</time>
      </trkpt>
      <trkpt lat="46.57481" lon="-1.81198">
        <ele>4.234056</ele>
        <time>2015-08-12T08:25:28Z</time>
      </trkpt>
      <trkpt lat="46.57541" lon="-1.81128">
        <ele>4.307813</ele>
        <time>2015-08-12T08:25:49Z</time>
      </trkpt>
      <trkpt lat="46.57554" lon="-1.81106">
        <ele>4.131381</ele>
        <time>2015-08-12T08:25:55Z</time>
      </trkpt>
      <trkpt lat="46.57559" lon="-1.81094">
        <ele>4</ele>
        <time>2015-08-12T08:25:58Z</time>
      </trkpt>
      <trkpt lat="46.57561" lon="-1.81063">
        <ele>4</ele>
        <time>2015-08-12T08:26:04Z</time>
      </trkpt>
      <trkpt lat="46.57564" lon="-1.8105">
        <ele>4</ele>
        <time>2015-08-12T08:26:07Z</time>
      </trkpt>
      <trkpt lat="46.57574" lon="-1.81047">
        <ele>4</ele>
        <time>2015-08-12T08:26:10Z</time>
      </trkpt>
      <trkpt lat="46.57584" lon="-1.81053">
        <ele>4</ele>
        <time>2015-08-12T08:26:14Z</time>
      </trkpt>
      <trkpt lat="46.5759" lon="-1.81066">
        <ele>4</ele>
        <time>2015-08-12T08:26:18Z</time>
      </trkpt>
      <trkpt lat="46.576" lon="-1.81071">
        <ele>4</ele>
        <time>2015-08-12T08:26:22Z</time>
      </trkpt>
      <trkpt lat="46.57628" lon="-1.81047">
        <ele>4</ele>
        <time>2015-08-12T08:26:33Z</time>
      </trkpt>
      <trkpt lat="46.57645" lon="-1.81037">
        <ele>4</ele>
        <time>2015-08-12T08:26:39Z</time>
      </trkpt>
      <trkpt lat="46.57676" lon="-1.81023">
        <ele>4</ele>
        <time>2015-08-12T08:26:48Z</time>
      </trkpt>
      <trkpt lat="46.57685" lon="-1.81013">
        <ele>4</ele>
        <time>2015-08-12T08:26:51Z</time>
      </trkpt>
      <trkpt lat="46.57696" lon="-1.80988">
        <ele>4</ele>
        <time>2015-08-12T08:26:57Z</time>
      </trkpt>
      <trkpt lat="46.57705" lon="-1.8098">
        <ele>4.15</ele>
        <time>2015-08-12T08:27:00Z</time>
      </trkpt>
      <trkpt lat="46.57714" lon="-1.8098">
        <ele>4.355</ele>
        <time>2015-08-12T08:27:03Z</time>
      </trkpt>
      <trkpt lat="46.57733" lon="-1.8099">
        <ele>4.775</ele>
        <time>2015-08-12T08:27:10Z</time>
      </trkpt>
      <trkpt lat="46.57742" lon="-1.80988">
        <ele>4.975</ele>
        <time>2015-08-12T08:27:13Z</time>
      </trkpt>
      <trkpt lat="46.57775" lon="-1.80961">
        <ele>5</ele>
        <time>2015-08-12T08:27:26Z</time>
      </trkpt>
      <trkpt lat="46.57787" lon="-1.80953">
        <ele>5</ele>
        <time>2015-08-12T08:38:17Z</time>
      </trkpt>
      <trkpt lat="46.57823" lon="-1.80921">
        <ele>5</ele>
        <time>2015-08-12T08:38:26Z</time>
      </trkpt>
      <trkpt lat="46.58014" lon="-1.80777">
        <ele>5</ele>
        <time>2015-08-12T08:39:12Z</time>
      </trkpt>
      <trkpt lat="46.58035" lon="-1.80763">
        <ele>4.789738</ele>
        <time>2015-08-12T08:39:17Z</time>
      </trkpt>
      <trkpt lat="46.58084" lon="-1.80725">
        <ele>4</ele>
        <time>2015-08-12T08:39:29Z</time>
      </trkpt>
      <trkpt lat="46.58105" lon="-1.80704">
        <ele>4</ele>
        <time>2015-08-12T08:39:35Z</time>
      </trkpt>
      <trkpt lat="46.5815" lon="-1.80653">
        <ele>4</ele>
        <time>2015-08-12T08:39:49Z</time>
      </trkpt>
      <trkpt lat="46.58171" lon="-1.80622">
        <ele>4.19825</ele>
        <time>2015-08-12T08:40:03Z</time>
      </trkpt>
      <trkpt lat="46.58176" lon="-1.8061">
        <ele>4.31</ele>
        <time>2015-08-12T08:40:08Z</time>
      </trkpt>
      <trkpt lat="46.58166" lon="-1.80605">
        <ele>4.085</ele>
        <time>2015-08-12T08:40:27Z</time>
      </trkpt>
      <trkpt lat="46.58163" lon="-1.80591">
        <ele>4</ele>
        <time>2015-08-12T08:44:13Z</time>
      </trkpt>
      <trkpt lat="46.58162" lon="-1.80575">
        <ele>4</ele>
        <time>2015-08-12T08:44:17Z</time>
      </trkpt>
      <trkpt lat="46.58155" lon="-1.80547">
        <ele>4</ele>
        <time>2015-08-12T08:44:22Z</time>
      </trkpt>
      <trkpt lat="46.58152" lon="-1.80528">
        <ele>4</ele>
        <time>2015-08-12T08:44:25Z</time>
      </trkpt>
      <trkpt lat="46.58151" lon="-1.80491">
        <ele>4</ele>
        <time>2015-08-12T08:44:31Z</time>
      </trkpt>
      <trkpt lat="46.58143" lon="-1.80375">
        <ele>4</ele>
        <time>2015-08-12T08:44:50Z</time>
      </trkpt>
      <trkpt lat="46.58129" lon="-1.80287">
        <ele>5.015</ele>
        <time>2015-08-12T08:45:05Z</time>
      </trkpt>
      <trkpt lat="46.58106" lon="-1.80158">
        <ele>5.38</ele>
        <time>2015-08-12T08:45:26Z</time>
      </trkpt>
      <trkpt lat="46.58103" lon="-1.80139">
        <ele>5.315</ele>
        <time>2015-08-12T08:45:29Z</time>
      </trkpt>
      <trkpt lat="46.58107" lon="-1.80121">
        <ele>5.375</ele>
        <time>2015-08-12T08:45:32Z</time>
      </trkpt>
      <trkpt lat="46.58116" lon="-1.80109">
        <ele>5.58</ele>
        <time>2015-08-12T08:45:35Z</time>
      </trkpt>
      <trkpt lat="46.58147" lon="-1.80084">
        <ele>5.80375</ele>
        <time>2015-08-12T08:45:44Z</time>
      </trkpt>
      <trkpt lat="46.58155" lon="-1.80071">
        <ele>5.59125</ele>
        <time>2015-08-12T08:45:47Z</time>
      </trkpt>
      <trkpt lat="46.58156" lon="-1.80054">
        <ele>5.3325</ele>
        <time>2015-08-12T08:45:50Z</time>
      </trkpt>
      <trkpt lat="46.58147" lon="-1.80021">
        <ele>5</ele>
        <time>2015-08-12T08:45:56Z</time>
      </trkpt>
      <trkpt lat="46.58148" lon="-1.80007">
        <ele>5</ele>
        <time>2015-08-12T08:46:00Z</time>
      </trkpt>
      <trkpt lat="46.58156" lon="-1.80013">
        <ele>5</ele>
        <time>2015-08-12T08:46:04Z</time>
      </trkpt>
      <trkpt lat="46.58152" lon="-1.80026">
        <ele>5</ele>
        <time>2015-08-12T08:46:09Z</time>
      </trkpt>
      <trkpt lat="46.58144" lon="-1.80014">
        <ele>5</ele>
        <time>2015-08-12T08:46:14Z</time>
      </trkpt>
      <trkpt lat="46.58125" lon="-1.79941">
        <ele>4.639375</ele>
        <time>2015-08-12T08:46:24Z</time>
      </trkpt>
      <trkpt lat="46.58119" lon="-1.79928">
        <ele>4.443125</ele>
        <time>2015-08-12T08:46:26Z</time>
      </trkpt>
      <trkpt lat="46.5811" lon="-1.79918">
        <ele>4.30375</ele>
        <time>2015-08-12T08:46:28Z</time>
      </trkpt>
      <trkpt lat="46.5809" lon="-1.79903">
        <ele>4.09875</ele>
        <time>2015-08-12T08:46:32Z</time>
      </trkpt>
      <trkpt lat="46.58083" lon="-1.79891">
        <ele>4</ele>
        <time>2015-08-12T08:46:34Z</time>
      </trkpt>
      <trkpt lat="46.58073" lon="-1.79863">
        <ele>4</ele>
        <time>2015-08-12T08:46:38Z</time>
      </trkpt>
      <trkpt lat="46.58062" lon="-1.79807">
        <ele>4.040875</ele>
        <time>2015-08-12T08:46:46Z</time>
      </trkpt>
      <trkpt lat="46.58053" lon="-1.79777">
        <ele>4</ele>
        <time>2015-08-12T08:46:50Z</time>
      </trkpt>
      <trkpt lat="46.58032" lon="-1.79722">
        <ele>4.232925</ele>
        <time>2015-08-12T08:46:58Z</time>
      </trkpt>
      <trkpt lat="46.58028" lon="-1.79708">
        <ele>4.24225</ele>
        <time>2015-08-12T08:47:00Z</time>
      </trkpt>
      <trkpt lat="46.5803" lon="-1.7969">
        <ele>4.335</ele>
        <time>2015-08-12T08:47:03Z</time>
      </trkpt>
      <trkpt lat="46.57965" lon="-1.7965">
        <ele>2.3</ele>
      </trkpt>
      <trkpt lat="46.57925" lon="-1.79583">
        <ele>2.2</ele>
      </trkpt>
      <trkpt lat="46.57892" lon="-1.79517">
        <ele>2.6</ele>
      </trkpt>
      <trkpt lat="46.57816" lon="-1.79441">
        <ele>3.4</ele>
      </trkpt>
      <trkpt lat="46.57779" lon="-1.79411">
        <ele>4.8</ele>
      </trkpt>
      <trkpt lat="46.57695" lon="-1.79319">
        <ele>6.3</ele>
      </trkpt>
      <trkpt lat="46.57628" lon="-1.79224">
        <ele>6.2</ele>
      </trkpt>
      <trkpt lat="46.57565" lon="-1.79149">
        <ele>5.2</ele>
      </trkpt>
      <trkpt lat="46.57541" lon="-1.79122">
        <ele>4.7</ele>
      </trkpt>
      <trkpt lat="46.57523" lon="-1.79101">
        <ele>4.5</ele>
      </trkpt>
      <trkpt lat="46.57504" lon="-1.79079">
        <ele>4.3</ele>
      </trkpt>
      <trkpt lat="46.57496" lon="-1.79077">
        <ele>4</ele>
      </trkpt>
      <trkpt lat="46.57493" lon="-1.79072">
        <ele>4</ele>
      </trkpt>
      <trkpt lat="46.57484" lon="-1.79067">
        <ele>4</ele>
      </trkpt>
      <trkpt lat="46.57443" lon="-1.7903">
        <ele>4</ele>
      </trkpt>
      <trkpt lat="46.57359" lon="-1.78927">
        <ele>4.7</ele>
      </trkpt>
      <trkpt lat="46.57315" lon="-1.79">
        <ele>4.1</ele>
      </trkpt>
      <trkpt lat="46.57246" lon="-1.79073">
        <ele>3.2</ele>
      </trkpt>
    </trkseg>
  </trk>
</gpx>